<?xml version="1.0" encoding="UTF-8" standalone="no" ?>
<gpx xmlns="http://www.topografix.com/GPX/1/1" xmlns:xsi="http://www.w3.org/2001/XMLSchema-instance" xsi:schemaLocation="http://www.topografix.com/GPX/1/1 http://www.topografix.com/GPX/1/1/gpx.xsd" version="1.1" creator="VisuGPX - https://www.visugpx.com">
  <metadata>
    <name>Etang Colberg Parc Henri Sellier Vallée aux Loups</name>
    <desc><![CDATA[Rando de 8,5km en boucle à partir de la gare de Robinson]]></desc>
  </metadata>
  <trk>
    <name><![CDATA[Etang Colberg Parc Henri Sellier Vallée aux Loups _R]]></name>
    <trkseg>
      <trkpt lat="48.77929" lon="2.28033">
        <ele>121.92</ele>
        <time>2021-09-29T12:11:56Z</time>
      </trkpt>
      <trkpt lat="48.77925" lon="2.28024">
        <ele>122.68</ele>
        <time>2021-09-29T12:12:05Z</time>
      </trkpt>
      <trkpt lat="48.77923" lon="2.28001">
        <ele>122.18</ele>
        <time>2021-09-29T12:12:18Z</time>
      </trkpt>
      <trkpt lat="48.77921" lon="2.27988">
        <ele>122.34</ele>
        <time>2021-09-29T12:12:31Z</time>
      </trkpt>
      <trkpt lat="48.77921" lon="2.27987">
        <ele>122.31</ele>
        <time>2021-09-29T12:12:32Z</time>
      </trkpt>
      <trkpt lat="48.77922" lon="2.27981">
        <ele>122.55</ele>
        <time>2021-09-29T12:12:35Z</time>
      </trkpt>
      <trkpt lat="48.77922" lon="2.27969">
        <ele>123.2</ele>
        <time>2021-09-29T12:12:46Z</time>
      </trkpt>
      <trkpt lat="48.77926" lon="2.27957">
        <ele>123.64</ele>
        <time>2021-09-29T12:12:57Z</time>
      </trkpt>
      <trkpt lat="48.77927" lon="2.27955">
        <ele>123.37</ele>
        <time>2021-09-29T12:12:58Z</time>
      </trkpt>
      <trkpt lat="48.77926" lon="2.2794">
        <ele>123.42</ele>
        <time>2021-09-29T12:13:13Z</time>
      </trkpt>
      <trkpt lat="48.77927" lon="2.27932">
        <ele>123.55</ele>
        <time>2021-09-29T12:13:24Z</time>
      </trkpt>
      <trkpt lat="48.77927" lon="2.27927">
        <ele>123.87</ele>
        <time>2021-09-29T12:13:27Z</time>
      </trkpt>
      <trkpt lat="48.77929" lon="2.27899">
        <ele>123.98</ele>
        <time>2021-09-29T12:13:45Z</time>
      </trkpt>
      <trkpt lat="48.77929" lon="2.27893">
        <ele>123.62</ele>
        <time>2021-09-29T12:13:50Z</time>
      </trkpt>
      <trkpt lat="48.77925" lon="2.27876">
        <ele>123.76</ele>
        <time>2021-09-29T12:14:01Z</time>
      </trkpt>
      <trkpt lat="48.77917" lon="2.27837">
        <ele>123.88</ele>
        <time>2021-09-29T12:14:21Z</time>
      </trkpt>
      <trkpt lat="48.77914" lon="2.27812">
        <ele>123.69</ele>
        <time>2021-09-29T12:14:36Z</time>
      </trkpt>
      <trkpt lat="48.77912" lon="2.278">
        <ele>123.17</ele>
        <time>2021-09-29T12:14:46Z</time>
      </trkpt>
      <trkpt lat="48.77916" lon="2.27778">
        <ele>123.88</ele>
        <time>2021-09-29T12:14:58Z</time>
      </trkpt>
      <trkpt lat="48.77913" lon="2.27761">
        <ele>123.48</ele>
        <time>2021-09-29T12:15:14Z</time>
      </trkpt>
      <trkpt lat="48.77911" lon="2.27751">
        <ele>122.65</ele>
        <time>2021-09-29T12:15:30Z</time>
      </trkpt>
      <trkpt lat="48.77911" lon="2.27735">
        <ele>122.29</ele>
        <time>2021-09-29T12:15:44Z</time>
      </trkpt>
      <trkpt lat="48.77913" lon="2.27724">
        <ele>122.63</ele>
        <time>2021-09-29T12:15:52Z</time>
      </trkpt>
      <trkpt lat="48.77916" lon="2.27711">
        <ele>122.66</ele>
        <time>2021-09-29T12:16:00Z</time>
      </trkpt>
      <trkpt lat="48.7792" lon="2.27701">
        <ele>122.26</ele>
        <time>2021-09-29T12:16:07Z</time>
      </trkpt>
      <trkpt lat="48.77927" lon="2.27689">
        <ele>122.59</ele>
        <time>2021-09-29T12:16:18Z</time>
      </trkpt>
      <trkpt lat="48.77929" lon="2.27688">
        <ele>122.74</ele>
        <time>2021-09-29T12:16:37Z</time>
      </trkpt>
      <trkpt lat="48.77931" lon="2.27687">
        <ele>121.2</ele>
        <time>2021-09-29T12:17:02Z</time>
      </trkpt>
      <trkpt lat="48.77932" lon="2.27677">
        <ele>121.41</ele>
        <time>2021-09-29T12:17:10Z</time>
      </trkpt>
      <trkpt lat="48.77931" lon="2.27655">
        <ele>122.49</ele>
        <time>2021-09-29T12:17:24Z</time>
      </trkpt>
      <trkpt lat="48.77935" lon="2.2763">
        <ele>122.16</ele>
        <time>2021-09-29T12:17:40Z</time>
      </trkpt>
      <trkpt lat="48.77937" lon="2.27621">
        <ele>122.82</ele>
        <time>2021-09-29T12:17:47Z</time>
      </trkpt>
      <trkpt lat="48.77939" lon="2.27609">
        <ele>123</ele>
        <time>2021-09-29T12:17:56Z</time>
      </trkpt>
      <trkpt lat="48.77942" lon="2.27595">
        <ele>123.17</ele>
        <time>2021-09-29T12:18:09Z</time>
      </trkpt>
      <trkpt lat="48.77944" lon="2.27581">
        <ele>123.21</ele>
        <time>2021-09-29T12:18:18Z</time>
      </trkpt>
      <trkpt lat="48.77949" lon="2.27557">
        <ele>124.24</ele>
        <time>2021-09-29T12:18:32Z</time>
      </trkpt>
      <trkpt lat="48.77951" lon="2.2754">
        <ele>124.58</ele>
        <time>2021-09-29T12:18:43Z</time>
      </trkpt>
      <trkpt lat="48.77953" lon="2.27533">
        <ele>125.23</ele>
        <time>2021-09-29T12:18:47Z</time>
      </trkpt>
      <trkpt lat="48.77959" lon="2.27515">
        <ele>125.27</ele>
        <time>2021-09-29T12:18:58Z</time>
      </trkpt>
      <trkpt lat="48.77963" lon="2.27502">
        <ele>125.85</ele>
        <time>2021-09-29T12:19:07Z</time>
      </trkpt>
      <trkpt lat="48.77967" lon="2.27495">
        <ele>125.78</ele>
        <time>2021-09-29T12:19:11Z</time>
      </trkpt>
      <trkpt lat="48.77969" lon="2.27491">
        <ele>126.01</ele>
        <time>2021-09-29T12:19:15Z</time>
      </trkpt>
      <trkpt lat="48.77971" lon="2.27484">
        <ele>126.5</ele>
        <time>2021-09-29T12:19:19Z</time>
      </trkpt>
      <trkpt lat="48.77977" lon="2.27469">
        <ele>127.26</ele>
        <time>2021-09-29T12:19:29Z</time>
      </trkpt>
      <trkpt lat="48.77982" lon="2.27464">
        <ele>127.26</ele>
        <time>2021-09-29T12:19:33Z</time>
      </trkpt>
      <trkpt lat="48.77983" lon="2.27443">
        <ele>127.43</ele>
        <time>2021-09-29T12:19:46Z</time>
      </trkpt>
      <trkpt lat="48.77987" lon="2.27426">
        <ele>128.12</ele>
        <time>2021-09-29T12:19:56Z</time>
      </trkpt>
      <trkpt lat="48.77989" lon="2.27414">
        <ele>128.36</ele>
        <time>2021-09-29T12:20:12Z</time>
      </trkpt>
      <trkpt lat="48.77989" lon="2.27411">
        <ele>128.5</ele>
        <time>2021-09-29T12:20:31Z</time>
      </trkpt>
      <trkpt lat="48.77987" lon="2.27407">
        <ele>128.2</ele>
        <time>2021-09-29T12:20:52Z</time>
      </trkpt>
      <trkpt lat="48.77981" lon="2.274">
        <ele>128.76</ele>
        <time>2021-09-29T12:21:09Z</time>
      </trkpt>
      <trkpt lat="48.77971" lon="2.27384">
        <ele>128.47</ele>
        <time>2021-09-29T12:21:23Z</time>
      </trkpt>
      <trkpt lat="48.77969" lon="2.27381">
        <ele>128.43</ele>
        <time>2021-09-29T12:21:36Z</time>
      </trkpt>
      <trkpt lat="48.77966" lon="2.27381">
        <ele>128.38</ele>
        <time>2021-09-29T12:21:57Z</time>
      </trkpt>
      <trkpt lat="48.77967" lon="2.27381">
        <ele>128.97</ele>
        <time>2021-09-29T12:22:16Z</time>
      </trkpt>
      <trkpt lat="48.77966" lon="2.27379">
        <ele>128.32</ele>
        <time>2021-09-29T12:22:48Z</time>
      </trkpt>
      <trkpt lat="48.77965" lon="2.27383">
        <ele>128.84</ele>
        <time>2021-09-29T12:23:08Z</time>
      </trkpt>
      <trkpt lat="48.77958" lon="2.27379">
        <ele>128.51</ele>
        <time>2021-09-29T12:23:22Z</time>
      </trkpt>
      <trkpt lat="48.77953" lon="2.27368">
        <ele>127.69</ele>
        <time>2021-09-29T12:23:34Z</time>
      </trkpt>
      <trkpt lat="48.77959" lon="2.27356">
        <ele>128.37</ele>
        <time>2021-09-29T12:23:45Z</time>
      </trkpt>
      <trkpt lat="48.77967" lon="2.27343">
        <ele>129.56</ele>
        <time>2021-09-29T12:23:58Z</time>
      </trkpt>
      <trkpt lat="48.77968" lon="2.27341">
        <ele>129.42</ele>
        <time>2021-09-29T12:23:59Z</time>
      </trkpt>
      <trkpt lat="48.77974" lon="2.27329">
        <ele>129.92</ele>
        <time>2021-09-29T12:24:12Z</time>
      </trkpt>
      <trkpt lat="48.77979" lon="2.27319">
        <ele>129.98</ele>
        <time>2021-09-29T12:24:20Z</time>
      </trkpt>
      <trkpt lat="48.77986" lon="2.27314">
        <ele>129.93</ele>
        <time>2021-09-29T12:24:25Z</time>
      </trkpt>
      <trkpt lat="48.77993" lon="2.27297">
        <ele>130.42</ele>
        <time>2021-09-29T12:24:36Z</time>
      </trkpt>
      <trkpt lat="48.77995" lon="2.27294">
        <ele>130.55</ele>
        <time>2021-09-29T12:24:38Z</time>
      </trkpt>
      <trkpt lat="48.77998" lon="2.27288">
        <ele>131.08</ele>
        <time>2021-09-29T12:24:45Z</time>
      </trkpt>
      <trkpt lat="48.78001" lon="2.27284">
        <ele>130.82</ele>
        <time>2021-09-29T12:24:53Z</time>
      </trkpt>
      <trkpt lat="48.78006" lon="2.27281">
        <ele>131.6</ele>
        <time>2021-09-29T12:25:00Z</time>
      </trkpt>
      <trkpt lat="48.78017" lon="2.27277">
        <ele>133.72</ele>
        <time>2021-09-29T12:25:14Z</time>
      </trkpt>
      <trkpt lat="48.78025" lon="2.27279">
        <ele>134.93</ele>
        <time>2021-09-29T12:25:26Z</time>
      </trkpt>
      <trkpt lat="48.7803" lon="2.27284">
        <ele>136.35</ele>
        <time>2021-09-29T12:25:38Z</time>
      </trkpt>
      <trkpt lat="48.78038" lon="2.27276">
        <ele>137.96</ele>
        <time>2021-09-29T12:25:47Z</time>
      </trkpt>
      <trkpt lat="48.7804" lon="2.2727">
        <ele>138.53</ele>
        <time>2021-09-29T12:26:00Z</time>
      </trkpt>
      <trkpt lat="48.78039" lon="2.27258">
        <ele>140.24</ele>
        <time>2021-09-29T12:26:14Z</time>
      </trkpt>
      <trkpt lat="48.78046" lon="2.27249">
        <ele>142.13</ele>
        <time>2021-09-29T12:26:28Z</time>
      </trkpt>
      <trkpt lat="48.7805" lon="2.27245">
        <ele>143.3</ele>
        <time>2021-09-29T12:26:39Z</time>
      </trkpt>
      <trkpt lat="48.78057" lon="2.27233">
        <ele>145.69</ele>
        <time>2021-09-29T12:26:54Z</time>
      </trkpt>
      <trkpt lat="48.78055" lon="2.27224">
        <ele>146.93</ele>
        <time>2021-09-29T12:27:09Z</time>
      </trkpt>
      <trkpt lat="48.78053" lon="2.27202">
        <ele>148.6</ele>
        <time>2021-09-29T12:27:27Z</time>
      </trkpt>
      <trkpt lat="48.78051" lon="2.27188">
        <ele>150.12</ele>
        <time>2021-09-29T12:27:47Z</time>
      </trkpt>
      <trkpt lat="48.78046" lon="2.27171">
        <ele>151.38</ele>
        <time>2021-09-29T12:28:04Z</time>
      </trkpt>
      <trkpt lat="48.78039" lon="2.27156">
        <ele>152.31</ele>
        <time>2021-09-29T12:28:18Z</time>
      </trkpt>
      <trkpt lat="48.78028" lon="2.27145">
        <ele>154.25</ele>
        <time>2021-09-29T12:28:36Z</time>
      </trkpt>
      <trkpt lat="48.78023" lon="2.27135">
        <ele>155.35</ele>
        <time>2021-09-29T12:28:46Z</time>
      </trkpt>
      <trkpt lat="48.78019" lon="2.27122">
        <ele>156.16</ele>
        <time>2021-09-29T12:28:58Z</time>
      </trkpt>
      <trkpt lat="48.78018" lon="2.27121">
        <ele>156.36</ele>
        <time>2021-09-29T12:29:00Z</time>
      </trkpt>
      <trkpt lat="48.78013" lon="2.27109">
        <ele>156.06</ele>
        <time>2021-09-29T12:29:15Z</time>
      </trkpt>
      <trkpt lat="48.78007" lon="2.27091">
        <ele>157.83</ele>
        <time>2021-09-29T12:29:33Z</time>
      </trkpt>
      <trkpt lat="48.78007" lon="2.27065">
        <ele>157.81</ele>
        <time>2021-09-29T12:29:51Z</time>
      </trkpt>
      <trkpt lat="48.77997" lon="2.2705">
        <ele>158.86</ele>
        <time>2021-09-29T12:30:08Z</time>
      </trkpt>
      <trkpt lat="48.77988" lon="2.2703">
        <ele>159.5</ele>
        <time>2021-09-29T12:30:23Z</time>
      </trkpt>
      <trkpt lat="48.77985" lon="2.27005">
        <ele>159.03</ele>
        <time>2021-09-29T12:30:41Z</time>
      </trkpt>
      <trkpt lat="48.77987" lon="2.26995">
        <ele>159.11</ele>
        <time>2021-09-29T12:30:48Z</time>
      </trkpt>
      <trkpt lat="48.7799" lon="2.26984">
        <ele>159.49</ele>
        <time>2021-09-29T12:30:56Z</time>
      </trkpt>
      <trkpt lat="48.77996" lon="2.26956">
        <ele>159.48</ele>
        <time>2021-09-29T12:31:10Z</time>
      </trkpt>
      <trkpt lat="48.77999" lon="2.26929">
        <ele>158.93</ele>
        <time>2021-09-29T12:31:25Z</time>
      </trkpt>
      <trkpt lat="48.78" lon="2.26907">
        <ele>159.28</ele>
        <time>2021-09-29T12:31:39Z</time>
      </trkpt>
      <trkpt lat="48.77996" lon="2.26885">
        <ele>159.13</ele>
        <time>2021-09-29T12:31:53Z</time>
      </trkpt>
      <trkpt lat="48.77995" lon="2.26883">
        <ele>158.87</ele>
        <time>2021-09-29T12:31:54Z</time>
      </trkpt>
      <trkpt lat="48.77989" lon="2.26855">
        <ele>159.33</ele>
        <time>2021-09-29T12:32:09Z</time>
      </trkpt>
      <trkpt lat="48.77989" lon="2.26829">
        <ele>159.33</ele>
        <time>2021-09-29T12:32:25Z</time>
      </trkpt>
      <trkpt lat="48.77998" lon="2.26805">
        <ele>159.37</ele>
        <time>2021-09-29T12:32:41Z</time>
      </trkpt>
      <trkpt lat="48.78011" lon="2.26788">
        <ele>158.55</ele>
        <time>2021-09-29T12:32:58Z</time>
      </trkpt>
      <trkpt lat="48.78027" lon="2.26766">
        <ele>157</ele>
        <time>2021-09-29T12:33:17Z</time>
      </trkpt>
      <trkpt lat="48.78032" lon="2.26754">
        <ele>157.43</ele>
        <time>2021-09-29T12:33:31Z</time>
      </trkpt>
      <trkpt lat="48.78033" lon="2.26746">
        <ele>155.44</ele>
        <time>2021-09-29T12:37:19Z</time>
      </trkpt>
      <trkpt lat="48.78042" lon="2.26761">
        <ele>153.02</ele>
        <time>2021-09-29T12:40:13Z</time>
      </trkpt>
      <trkpt lat="48.78051" lon="2.26778">
        <ele>150.71</ele>
        <time>2021-09-29T12:40:32Z</time>
      </trkpt>
      <trkpt lat="48.78059" lon="2.2679">
        <ele>149.15</ele>
        <time>2021-09-29T12:40:49Z</time>
      </trkpt>
      <trkpt lat="48.78069" lon="2.26806">
        <ele>148.07</ele>
        <time>2021-09-29T12:41:05Z</time>
      </trkpt>
      <trkpt lat="48.78079" lon="2.2681">
        <ele>145.38</ele>
        <time>2021-09-29T12:41:20Z</time>
      </trkpt>
      <trkpt lat="48.78088" lon="2.26798">
        <ele>143.55</ele>
        <time>2021-09-29T12:41:39Z</time>
      </trkpt>
      <trkpt lat="48.78091" lon="2.26786">
        <ele>141.69</ele>
        <time>2021-09-29T12:41:52Z</time>
      </trkpt>
      <trkpt lat="48.78094" lon="2.26774">
        <ele>138.57</ele>
        <time>2021-09-29T12:42:09Z</time>
      </trkpt>
      <trkpt lat="48.78099" lon="2.26761">
        <ele>135.38</ele>
        <time>2021-09-29T12:42:22Z</time>
      </trkpt>
      <trkpt lat="48.78108" lon="2.26746">
        <ele>132.58</ele>
        <time>2021-09-29T12:42:39Z</time>
      </trkpt>
      <trkpt lat="48.78118" lon="2.26733">
        <ele>131.15</ele>
        <time>2021-09-29T12:42:56Z</time>
      </trkpt>
      <trkpt lat="48.78122" lon="2.26731">
        <ele>130.84</ele>
        <time>2021-09-29T12:43:13Z</time>
      </trkpt>
      <trkpt lat="48.78122" lon="2.26737">
        <ele>129.91</ele>
        <time>2021-09-29T12:43:29Z</time>
      </trkpt>
      <trkpt lat="48.78122" lon="2.26747">
        <ele>128.94</ele>
        <time>2021-09-29T12:43:49Z</time>
      </trkpt>
      <trkpt lat="48.78126" lon="2.26745">
        <ele>129.16</ele>
        <time>2021-09-29T12:44:09Z</time>
      </trkpt>
      <trkpt lat="48.78127" lon="2.2675">
        <ele>128.51</ele>
        <time>2021-09-29T12:44:28Z</time>
      </trkpt>
      <trkpt lat="48.78128" lon="2.26751">
        <ele>128.26</ele>
        <time>2021-09-29T12:44:31Z</time>
      </trkpt>
      <trkpt lat="48.78147" lon="2.26753">
        <ele>127.52</ele>
        <time>2021-09-29T12:44:51Z</time>
      </trkpt>
      <trkpt lat="48.78164" lon="2.26749">
        <ele>125.89</ele>
        <time>2021-09-29T12:45:10Z</time>
      </trkpt>
      <trkpt lat="48.78173" lon="2.26747">
        <ele>124.7</ele>
        <time>2021-09-29T12:45:28Z</time>
      </trkpt>
      <trkpt lat="48.78181" lon="2.26745">
        <ele>125.27</ele>
        <time>2021-09-29T12:45:47Z</time>
      </trkpt>
      <trkpt lat="48.7819" lon="2.26745">
        <ele>124.3</ele>
        <time>2021-09-29T12:46:04Z</time>
      </trkpt>
      <trkpt lat="48.78199" lon="2.26745">
        <ele>123.66</ele>
        <time>2021-09-29T12:46:19Z</time>
      </trkpt>
      <trkpt lat="48.78216" lon="2.26745">
        <ele>123.09</ele>
        <time>2021-09-29T12:46:39Z</time>
      </trkpt>
      <trkpt lat="48.78231" lon="2.2674">
        <ele>122.08</ele>
        <time>2021-09-29T12:46:55Z</time>
      </trkpt>
      <trkpt lat="48.78242" lon="2.26726">
        <ele>120</ele>
        <time>2021-09-29T12:47:13Z</time>
      </trkpt>
      <trkpt lat="48.78252" lon="2.26711">
        <ele>119.41</ele>
        <time>2021-09-29T12:47:29Z</time>
      </trkpt>
      <trkpt lat="48.78264" lon="2.26697">
        <ele>118.33</ele>
        <time>2021-09-29T12:47:46Z</time>
      </trkpt>
      <trkpt lat="48.78282" lon="2.2669">
        <ele>117.85</ele>
        <time>2021-09-29T12:48:04Z</time>
      </trkpt>
      <trkpt lat="48.78293" lon="2.26696">
        <ele>117.43</ele>
        <time>2021-09-29T12:48:18Z</time>
      </trkpt>
      <trkpt lat="48.78304" lon="2.26695">
        <ele>115.78</ele>
        <time>2021-09-29T12:48:33Z</time>
      </trkpt>
      <trkpt lat="48.78317" lon="2.26702">
        <ele>114.27</ele>
        <time>2021-09-29T12:48:49Z</time>
      </trkpt>
      <trkpt lat="48.78322" lon="2.2672">
        <ele>113.47</ele>
        <time>2021-09-29T12:49:06Z</time>
      </trkpt>
      <trkpt lat="48.78324" lon="2.26742">
        <ele>111.69</ele>
        <time>2021-09-29T12:49:23Z</time>
      </trkpt>
      <trkpt lat="48.78326" lon="2.26765">
        <ele>110.57</ele>
        <time>2021-09-29T12:49:41Z</time>
      </trkpt>
      <trkpt lat="48.78329" lon="2.26787">
        <ele>109.59</ele>
        <time>2021-09-29T12:49:55Z</time>
      </trkpt>
      <trkpt lat="48.7833" lon="2.26803">
        <ele>108.77</ele>
        <time>2021-09-29T12:50:04Z</time>
      </trkpt>
      <trkpt lat="48.78335" lon="2.26826">
        <ele>107.22</ele>
        <time>2021-09-29T12:50:18Z</time>
      </trkpt>
      <trkpt lat="48.78334" lon="2.26835">
        <ele>106.75</ele>
        <time>2021-09-29T12:50:35Z</time>
      </trkpt>
      <trkpt lat="48.78336" lon="2.26834">
        <ele>106.64</ele>
        <time>2021-09-29T12:50:52Z</time>
      </trkpt>
      <trkpt lat="48.7834" lon="2.26837">
        <ele>106.37</ele>
        <time>2021-09-29T12:51:03Z</time>
      </trkpt>
      <trkpt lat="48.78348" lon="2.26849">
        <ele>106.2</ele>
        <time>2021-09-29T12:51:16Z</time>
      </trkpt>
      <trkpt lat="48.7835" lon="2.26862">
        <ele>105.88</ele>
        <time>2021-09-29T12:51:24Z</time>
      </trkpt>
      <trkpt lat="48.78347" lon="2.26892">
        <ele>105.28</ele>
        <time>2021-09-29T12:51:45Z</time>
      </trkpt>
      <trkpt lat="48.7835" lon="2.2691">
        <ele>104.92</ele>
        <time>2021-09-29T12:51:56Z</time>
      </trkpt>
      <trkpt lat="48.78355" lon="2.26932">
        <ele>104.74</ele>
        <time>2021-09-29T12:52:06Z</time>
      </trkpt>
      <trkpt lat="48.78355" lon="2.2694">
        <ele>104.45</ele>
        <time>2021-09-29T12:52:10Z</time>
      </trkpt>
      <trkpt lat="48.78359" lon="2.26958">
        <ele>104.67</ele>
        <time>2021-09-29T12:52:21Z</time>
      </trkpt>
      <trkpt lat="48.78355" lon="2.26976">
        <ele>104.13</ele>
        <time>2021-09-29T12:52:30Z</time>
      </trkpt>
      <trkpt lat="48.78355" lon="2.26986">
        <ele>103.72</ele>
        <time>2021-09-29T12:52:36Z</time>
      </trkpt>
      <trkpt lat="48.78358" lon="2.27004">
        <ele>103.45</ele>
        <time>2021-09-29T12:52:47Z</time>
      </trkpt>
      <trkpt lat="48.78357" lon="2.2701">
        <ele>104.25</ele>
        <time>2021-09-29T12:52:51Z</time>
      </trkpt>
      <trkpt lat="48.78359" lon="2.27013">
        <ele>103.86</ele>
        <time>2021-09-29T12:52:53Z</time>
      </trkpt>
      <trkpt lat="48.78359" lon="2.27022">
        <ele>103.4</ele>
        <time>2021-09-29T12:52:58Z</time>
      </trkpt>
      <trkpt lat="48.78357" lon="2.27041">
        <ele>103.14</ele>
        <time>2021-09-29T12:53:10Z</time>
      </trkpt>
      <trkpt lat="48.78355" lon="2.27047">
        <ele>103.26</ele>
        <time>2021-09-29T12:53:14Z</time>
      </trkpt>
      <trkpt lat="48.78356" lon="2.27055">
        <ele>103.32</ele>
        <time>2021-09-29T12:53:19Z</time>
      </trkpt>
      <trkpt lat="48.78355" lon="2.27057">
        <ele>103.02</ele>
        <time>2021-09-29T12:53:21Z</time>
      </trkpt>
      <trkpt lat="48.78358" lon="2.27076">
        <ele>102.42</ele>
        <time>2021-09-29T12:53:31Z</time>
      </trkpt>
      <trkpt lat="48.78369" lon="2.27091">
        <ele>101.96</ele>
        <time>2021-09-29T12:53:43Z</time>
      </trkpt>
      <trkpt lat="48.78375" lon="2.27102">
        <ele>102.46</ele>
        <time>2021-09-29T12:53:59Z</time>
      </trkpt>
      <trkpt lat="48.78378" lon="2.27127">
        <ele>101.58</ele>
        <time>2021-09-29T12:54:15Z</time>
      </trkpt>
      <trkpt lat="48.78385" lon="2.27137">
        <ele>100.21</ele>
        <time>2021-09-29T12:54:29Z</time>
      </trkpt>
      <trkpt lat="48.78396" lon="2.27141">
        <ele>97.03</ele>
        <time>2021-09-29T12:54:43Z</time>
      </trkpt>
      <trkpt lat="48.78401" lon="2.27145">
        <ele>97.08</ele>
        <time>2021-09-29T12:54:57Z</time>
      </trkpt>
      <trkpt lat="48.78405" lon="2.27151">
        <ele>96.82</ele>
        <time>2021-09-29T12:55:07Z</time>
      </trkpt>
      <trkpt lat="48.78417" lon="2.27161">
        <ele>96.35</ele>
        <time>2021-09-29T12:55:21Z</time>
      </trkpt>
      <trkpt lat="48.7843" lon="2.27168">
        <ele>95.03</ele>
        <time>2021-09-29T12:55:34Z</time>
      </trkpt>
      <trkpt lat="48.78448" lon="2.27177">
        <ele>95.56</ele>
        <time>2021-09-29T12:55:52Z</time>
      </trkpt>
      <trkpt lat="48.78464" lon="2.27188">
        <ele>95.43</ele>
        <time>2021-09-29T12:56:07Z</time>
      </trkpt>
      <trkpt lat="48.78471" lon="2.27192">
        <ele>94.43</ele>
        <time>2021-09-29T12:56:17Z</time>
      </trkpt>
      <trkpt lat="48.78488" lon="2.27203">
        <ele>95.44</ele>
        <time>2021-09-29T12:56:37Z</time>
      </trkpt>
      <trkpt lat="48.78502" lon="2.27211">
        <ele>94.9</ele>
        <time>2021-09-29T12:56:51Z</time>
      </trkpt>
      <trkpt lat="48.78515" lon="2.27219">
        <ele>95.17</ele>
        <time>2021-09-29T12:57:05Z</time>
      </trkpt>
      <trkpt lat="48.78524" lon="2.27225">
        <ele>95.91</ele>
        <time>2021-09-29T12:57:15Z</time>
      </trkpt>
      <trkpt lat="48.7854" lon="2.27236">
        <ele>95.94</ele>
        <time>2021-09-29T12:57:29Z</time>
      </trkpt>
      <trkpt lat="48.78556" lon="2.27239">
        <ele>96.1</ele>
        <time>2021-09-29T12:57:49Z</time>
      </trkpt>
      <trkpt lat="48.78568" lon="2.27235">
        <ele>95.92</ele>
        <time>2021-09-29T12:58:07Z</time>
      </trkpt>
      <trkpt lat="48.78568" lon="2.27235">
        <ele>94.62</ele>
        <time>2021-09-29T12:58:09Z</time>
      </trkpt>
      <trkpt lat="48.78569" lon="2.27232">
        <ele>94.99</ele>
        <time>2021-09-29T12:58:27Z</time>
      </trkpt>
      <trkpt lat="48.78571" lon="2.27233">
        <ele>94.88</ele>
        <time>2021-09-29T12:58:48Z</time>
      </trkpt>
      <trkpt lat="48.78571" lon="2.27233">
        <ele>94.69</ele>
        <time>2021-09-29T12:58:50Z</time>
      </trkpt>
      <trkpt lat="48.78571" lon="2.27233">
        <ele>94.96</ele>
        <time>2021-09-29T12:59:12Z</time>
      </trkpt>
      <trkpt lat="48.78571" lon="2.27234">
        <ele>94.97</ele>
        <time>2021-09-29T12:59:29Z</time>
      </trkpt>
      <trkpt lat="48.78573" lon="2.27226">
        <ele>94.5</ele>
        <time>2021-09-29T12:59:50Z</time>
      </trkpt>
      <trkpt lat="48.7858" lon="2.27214">
        <ele>94.76</ele>
        <time>2021-09-29T13:00:08Z</time>
      </trkpt>
      <trkpt lat="48.78586" lon="2.27195">
        <ele>95.54</ele>
        <time>2021-09-29T13:00:24Z</time>
      </trkpt>
      <trkpt lat="48.78589" lon="2.27179">
        <ele>96.1</ele>
        <time>2021-09-29T13:00:34Z</time>
      </trkpt>
      <trkpt lat="48.78596" lon="2.27167">
        <ele>96.67</ele>
        <time>2021-09-29T13:00:46Z</time>
      </trkpt>
      <trkpt lat="48.78603" lon="2.27163">
        <ele>96.96</ele>
        <time>2021-09-29T13:00:58Z</time>
      </trkpt>
      <trkpt lat="48.78612" lon="2.27155">
        <ele>96.48</ele>
        <time>2021-09-29T13:01:16Z</time>
      </trkpt>
      <trkpt lat="48.78615" lon="2.27149">
        <ele>95.64</ele>
        <time>2021-09-29T13:01:30Z</time>
      </trkpt>
      <trkpt lat="48.78619" lon="2.27147">
        <ele>96.51</ele>
        <time>2021-09-29T13:01:46Z</time>
      </trkpt>
      <trkpt lat="48.78622" lon="2.27158">
        <ele>95.96</ele>
        <time>2021-09-29T13:01:57Z</time>
      </trkpt>
      <trkpt lat="48.78618" lon="2.27153">
        <ele>95.71</ele>
        <time>2021-09-29T13:02:10Z</time>
      </trkpt>
      <trkpt lat="48.78625" lon="2.27149">
        <ele>96.19</ele>
        <time>2021-09-29T13:02:22Z</time>
      </trkpt>
      <trkpt lat="48.78623" lon="2.27136">
        <ele>96.57</ele>
        <time>2021-09-29T13:02:39Z</time>
      </trkpt>
      <trkpt lat="48.78622" lon="2.27114">
        <ele>95.43</ele>
        <time>2021-09-29T13:02:54Z</time>
      </trkpt>
      <trkpt lat="48.7862" lon="2.27092">
        <ele>95.5</ele>
        <time>2021-09-29T13:03:10Z</time>
      </trkpt>
      <trkpt lat="48.7862" lon="2.27083">
        <ele>96.8</ele>
        <time>2021-09-29T13:03:15Z</time>
      </trkpt>
      <trkpt lat="48.78617" lon="2.27065">
        <ele>96.96</ele>
        <time>2021-09-29T13:03:28Z</time>
      </trkpt>
      <trkpt lat="48.78614" lon="2.27044">
        <ele>98.63</ele>
        <time>2021-09-29T13:03:41Z</time>
      </trkpt>
      <trkpt lat="48.78615" lon="2.27027">
        <ele>99.03</ele>
        <time>2021-09-29T13:03:52Z</time>
      </trkpt>
      <trkpt lat="48.78613" lon="2.2701">
        <ele>99.02</ele>
        <time>2021-09-29T13:04:09Z</time>
      </trkpt>
      <trkpt lat="48.78613" lon="2.26991">
        <ele>100.79</ele>
        <time>2021-09-29T13:04:27Z</time>
      </trkpt>
      <trkpt lat="48.78609" lon="2.26981">
        <ele>102.49</ele>
        <time>2021-09-29T13:04:41Z</time>
      </trkpt>
      <trkpt lat="48.7861" lon="2.2698">
        <ele>102.46</ele>
        <time>2021-09-29T13:04:42Z</time>
      </trkpt>
      <trkpt lat="48.78606" lon="2.2697">
        <ele>104.71</ele>
        <time>2021-09-29T13:04:57Z</time>
      </trkpt>
      <trkpt lat="48.78604" lon="2.26959">
        <ele>107.96</ele>
        <time>2021-09-29T13:05:12Z</time>
      </trkpt>
      <trkpt lat="48.78602" lon="2.26954">
        <ele>107.12</ele>
        <time>2021-09-29T13:05:30Z</time>
      </trkpt>
      <trkpt lat="48.786" lon="2.26947">
        <ele>109.51</ele>
        <time>2021-09-29T13:05:43Z</time>
      </trkpt>
      <trkpt lat="48.78599" lon="2.26938">
        <ele>110.17</ele>
        <time>2021-09-29T13:05:58Z</time>
      </trkpt>
      <trkpt lat="48.78592" lon="2.26917">
        <ele>111.24</ele>
        <time>2021-09-29T13:06:16Z</time>
      </trkpt>
      <trkpt lat="48.78591" lon="2.26896">
        <ele>112.87</ele>
        <time>2021-09-29T13:06:30Z</time>
      </trkpt>
      <trkpt lat="48.7859" lon="2.26879">
        <ele>112.73</ele>
        <time>2021-09-29T13:06:41Z</time>
      </trkpt>
      <trkpt lat="48.78591" lon="2.2686">
        <ele>113.81</ele>
        <time>2021-09-29T13:06:58Z</time>
      </trkpt>
      <trkpt lat="48.78589" lon="2.2684">
        <ele>114.43</ele>
        <time>2021-09-29T13:07:15Z</time>
      </trkpt>
      <trkpt lat="48.78589" lon="2.26836">
        <ele>114.6</ele>
        <time>2021-09-29T13:07:18Z</time>
      </trkpt>
      <trkpt lat="48.78587" lon="2.26819">
        <ele>115.86</ele>
        <time>2021-09-29T13:07:33Z</time>
      </trkpt>
      <trkpt lat="48.78586" lon="2.26802">
        <ele>117.19</ele>
        <time>2021-09-29T13:07:48Z</time>
      </trkpt>
      <trkpt lat="48.78584" lon="2.26782">
        <ele>117.79</ele>
        <time>2021-09-29T13:08:03Z</time>
      </trkpt>
      <trkpt lat="48.78584" lon="2.26777">
        <ele>118.25</ele>
        <time>2021-09-29T13:08:07Z</time>
      </trkpt>
      <trkpt lat="48.78583" lon="2.26762">
        <ele>119.44</ele>
        <time>2021-09-29T13:08:19Z</time>
      </trkpt>
      <trkpt lat="48.78578" lon="2.26743">
        <ele>120.28</ele>
        <time>2021-09-29T13:08:35Z</time>
      </trkpt>
      <trkpt lat="48.78577" lon="2.26722">
        <ele>121.31</ele>
        <time>2021-09-29T13:08:50Z</time>
      </trkpt>
      <trkpt lat="48.78576" lon="2.26703">
        <ele>121.65</ele>
        <time>2021-09-29T13:09:03Z</time>
      </trkpt>
      <trkpt lat="48.78577" lon="2.26698">
        <ele>121.58</ele>
        <time>2021-09-29T13:09:06Z</time>
      </trkpt>
      <trkpt lat="48.78579" lon="2.26683">
        <ele>122.24</ele>
        <time>2021-09-29T13:09:17Z</time>
      </trkpt>
      <trkpt lat="48.78581" lon="2.26678">
        <ele>122.69</ele>
        <time>2021-09-29T13:09:28Z</time>
      </trkpt>
      <trkpt lat="48.78581" lon="2.26674">
        <ele>122.44</ele>
        <time>2021-09-29T13:09:42Z</time>
      </trkpt>
      <trkpt lat="48.78577" lon="2.2666">
        <ele>122.34</ele>
        <time>2021-09-29T13:09:55Z</time>
      </trkpt>
      <trkpt lat="48.78572" lon="2.26645">
        <ele>122.89</ele>
        <time>2021-09-29T13:10:08Z</time>
      </trkpt>
      <trkpt lat="48.78568" lon="2.26629">
        <ele>123.75</ele>
        <time>2021-09-29T13:10:19Z</time>
      </trkpt>
      <trkpt lat="48.78564" lon="2.26614">
        <ele>123.74</ele>
        <time>2021-09-29T13:10:29Z</time>
      </trkpt>
      <trkpt lat="48.78559" lon="2.26601">
        <ele>123.89</ele>
        <time>2021-09-29T13:10:37Z</time>
      </trkpt>
      <trkpt lat="48.78556" lon="2.26594">
        <ele>124.68</ele>
        <time>2021-09-29T13:10:43Z</time>
      </trkpt>
      <trkpt lat="48.78551" lon="2.26578">
        <ele>124.58</ele>
        <time>2021-09-29T13:10:55Z</time>
      </trkpt>
      <trkpt lat="48.78546" lon="2.26558">
        <ele>124.56</ele>
        <time>2021-09-29T13:11:10Z</time>
      </trkpt>
      <trkpt lat="48.78535" lon="2.26542">
        <ele>123.85</ele>
        <time>2021-09-29T13:11:26Z</time>
      </trkpt>
      <trkpt lat="48.78524" lon="2.26533">
        <ele>124.45</ele>
        <time>2021-09-29T13:11:37Z</time>
      </trkpt>
      <trkpt lat="48.78512" lon="2.26519">
        <ele>124.49</ele>
        <time>2021-09-29T13:11:50Z</time>
      </trkpt>
      <trkpt lat="48.78493" lon="2.26505">
        <ele>123.17</ele>
        <time>2021-09-29T13:12:09Z</time>
      </trkpt>
      <trkpt lat="48.78487" lon="2.26506">
        <ele>124.47</ele>
        <time>2021-09-29T13:12:22Z</time>
      </trkpt>
      <trkpt lat="48.78478" lon="2.26495">
        <ele>125.83</ele>
        <time>2021-09-29T13:12:41Z</time>
      </trkpt>
      <trkpt lat="48.78475" lon="2.26483">
        <ele>124.58</ele>
        <time>2021-09-29T13:12:59Z</time>
      </trkpt>
      <trkpt lat="48.78466" lon="2.26471">
        <ele>122.82</ele>
        <time>2021-09-29T13:13:15Z</time>
      </trkpt>
      <trkpt lat="48.78454" lon="2.26451">
        <ele>122.73</ele>
        <time>2021-09-29T13:13:32Z</time>
      </trkpt>
      <trkpt lat="48.78442" lon="2.26431">
        <ele>121.74</ele>
        <time>2021-09-29T13:13:48Z</time>
      </trkpt>
      <trkpt lat="48.78439" lon="2.26424">
        <ele>123.08</ele>
        <time>2021-09-29T13:13:54Z</time>
      </trkpt>
      <trkpt lat="48.78434" lon="2.26409">
        <ele>122.39</ele>
        <time>2021-09-29T13:14:10Z</time>
      </trkpt>
      <trkpt lat="48.7843" lon="2.26401">
        <ele>122.29</ele>
        <time>2021-09-29T13:14:25Z</time>
      </trkpt>
      <trkpt lat="48.7843" lon="2.26403">
        <ele>122.39</ele>
        <time>2021-09-29T13:14:42Z</time>
      </trkpt>
      <trkpt lat="48.7843" lon="2.26406">
        <ele>122.04</ele>
        <time>2021-09-29T13:15:04Z</time>
      </trkpt>
      <trkpt lat="48.78426" lon="2.26397">
        <ele>122.43</ele>
        <time>2021-09-29T13:15:20Z</time>
      </trkpt>
      <trkpt lat="48.78426" lon="2.26394">
        <ele>121.6</ele>
        <time>2021-09-29T13:15:37Z</time>
      </trkpt>
      <trkpt lat="48.78424" lon="2.26379">
        <ele>122.19</ele>
        <time>2021-09-29T13:15:54Z</time>
      </trkpt>
      <trkpt lat="48.78419" lon="2.26362">
        <ele>121.86</ele>
        <time>2021-09-29T13:16:07Z</time>
      </trkpt>
      <trkpt lat="48.78418" lon="2.26339">
        <ele>121.38</ele>
        <time>2021-09-29T13:16:23Z</time>
      </trkpt>
      <trkpt lat="48.78417" lon="2.26311">
        <ele>119.67</ele>
        <time>2021-09-29T13:16:39Z</time>
      </trkpt>
      <trkpt lat="48.78417" lon="2.26286">
        <ele>117.53</ele>
        <time>2021-09-29T13:16:56Z</time>
      </trkpt>
      <trkpt lat="48.78417" lon="2.26273">
        <ele>116.83</ele>
        <time>2021-09-29T13:17:06Z</time>
      </trkpt>
      <trkpt lat="48.78409" lon="2.26247">
        <ele>115.84</ele>
        <time>2021-09-29T13:17:20Z</time>
      </trkpt>
      <trkpt lat="48.78412" lon="2.26222">
        <ele>116.79</ele>
        <time>2021-09-29T13:17:35Z</time>
      </trkpt>
      <trkpt lat="48.78415" lon="2.26195">
        <ele>117.74</ele>
        <time>2021-09-29T13:17:50Z</time>
      </trkpt>
      <trkpt lat="48.78419" lon="2.26188">
        <ele>118.75</ele>
        <time>2021-09-29T13:18:07Z</time>
      </trkpt>
      <trkpt lat="48.78417" lon="2.26187">
        <ele>118.2</ele>
        <time>2021-09-29T13:18:23Z</time>
      </trkpt>
      <trkpt lat="48.78412" lon="2.2618">
        <ele>117.16</ele>
        <time>2021-09-29T13:18:37Z</time>
      </trkpt>
      <trkpt lat="48.78405" lon="2.26178">
        <ele>115.07</ele>
        <time>2021-09-29T13:18:53Z</time>
      </trkpt>
      <trkpt lat="48.78399" lon="2.26181">
        <ele>111.63</ele>
        <time>2021-09-29T13:19:04Z</time>
      </trkpt>
      <trkpt lat="48.78395" lon="2.26178">
        <ele>110.48</ele>
        <time>2021-09-29T13:19:10Z</time>
      </trkpt>
      <trkpt lat="48.78386" lon="2.26175">
        <ele>109.85</ele>
        <time>2021-09-29T13:19:20Z</time>
      </trkpt>
      <trkpt lat="48.78383" lon="2.26176">
        <ele>109.35</ele>
        <time>2021-09-29T13:19:23Z</time>
      </trkpt>
      <trkpt lat="48.78378" lon="2.26178">
        <ele>109.67</ele>
        <time>2021-09-29T13:19:32Z</time>
      </trkpt>
      <trkpt lat="48.78371" lon="2.26179">
        <ele>108.59</ele>
        <time>2021-09-29T13:19:45Z</time>
      </trkpt>
      <trkpt lat="48.78363" lon="2.26181">
        <ele>109.08</ele>
        <time>2021-09-29T13:19:55Z</time>
      </trkpt>
      <trkpt lat="48.78354" lon="2.26187">
        <ele>109.41</ele>
        <time>2021-09-29T13:20:06Z</time>
      </trkpt>
      <trkpt lat="48.78346" lon="2.26188">
        <ele>109.81</ele>
        <time>2021-09-29T13:20:14Z</time>
      </trkpt>
      <trkpt lat="48.78335" lon="2.26189">
        <ele>111.36</ele>
        <time>2021-09-29T13:20:28Z</time>
      </trkpt>
      <trkpt lat="48.78325" lon="2.26189">
        <ele>111.91</ele>
        <time>2021-09-29T13:20:43Z</time>
      </trkpt>
      <trkpt lat="48.78314" lon="2.26197">
        <ele>114.12</ele>
        <time>2021-09-29T13:20:59Z</time>
      </trkpt>
      <trkpt lat="48.78305" lon="2.26202">
        <ele>115.48</ele>
        <time>2021-09-29T13:21:16Z</time>
      </trkpt>
      <trkpt lat="48.78293" lon="2.26209">
        <ele>115.87</ele>
        <time>2021-09-29T13:21:34Z</time>
      </trkpt>
      <trkpt lat="48.78291" lon="2.26212">
        <ele>115.07</ele>
        <time>2021-09-29T13:21:52Z</time>
      </trkpt>
      <trkpt lat="48.78286" lon="2.26216">
        <ele>115.35</ele>
        <time>2021-09-29T13:22:13Z</time>
      </trkpt>
      <trkpt lat="48.78287" lon="2.26214">
        <ele>115.76</ele>
        <time>2021-09-29T13:22:27Z</time>
      </trkpt>
      <trkpt lat="48.78285" lon="2.26229">
        <ele>116.35</ele>
        <time>2021-09-29T13:22:44Z</time>
      </trkpt>
      <trkpt lat="48.78284" lon="2.2624">
        <ele>115.98</ele>
        <time>2021-09-29T13:22:51Z</time>
      </trkpt>
      <trkpt lat="48.78284" lon="2.26245">
        <ele>115.76</ele>
        <time>2021-09-29T13:22:58Z</time>
      </trkpt>
      <trkpt lat="48.78286" lon="2.26257">
        <ele>114.35</ele>
        <time>2021-09-29T13:23:12Z</time>
      </trkpt>
      <trkpt lat="48.78282" lon="2.26262">
        <ele>114.47</ele>
        <time>2021-09-29T13:23:21Z</time>
      </trkpt>
      <trkpt lat="48.78275" lon="2.26262">
        <ele>114.88</ele>
        <time>2021-09-29T13:23:30Z</time>
      </trkpt>
      <trkpt lat="48.78272" lon="2.26266">
        <ele>115.06</ele>
        <time>2021-09-29T13:23:50Z</time>
      </trkpt>
      <trkpt lat="48.78278" lon="2.26264">
        <ele>115.38</ele>
        <time>2021-09-29T13:24:18Z</time>
      </trkpt>
      <trkpt lat="48.78275" lon="2.26259">
        <ele>115.44</ele>
        <time>2021-09-29T13:24:34Z</time>
      </trkpt>
      <trkpt lat="48.78272" lon="2.26254">
        <ele>118.22</ele>
        <time>2021-09-29T13:24:51Z</time>
      </trkpt>
      <trkpt lat="48.78268" lon="2.26248">
        <ele>120</ele>
        <time>2021-09-29T13:25:06Z</time>
      </trkpt>
      <trkpt lat="48.78262" lon="2.2624">
        <ele>120.81</ele>
        <time>2021-09-29T13:25:18Z</time>
      </trkpt>
      <trkpt lat="48.78257" lon="2.26236">
        <ele>121.3</ele>
        <time>2021-09-29T13:25:30Z</time>
      </trkpt>
      <trkpt lat="48.78257" lon="2.26234">
        <ele>121.44</ele>
        <time>2021-09-29T13:25:52Z</time>
      </trkpt>
      <trkpt lat="48.78246" lon="2.2623">
        <ele>121.55</ele>
        <time>2021-09-29T13:26:48Z</time>
      </trkpt>
      <trkpt lat="48.78237" lon="2.26228">
        <ele>121.72</ele>
        <time>2021-09-29T13:26:59Z</time>
      </trkpt>
      <trkpt lat="48.78235" lon="2.26224">
        <ele>122.87</ele>
        <time>2021-09-29T13:27:13Z</time>
      </trkpt>
      <trkpt lat="48.78238" lon="2.26218">
        <ele>122.17</ele>
        <time>2021-09-29T13:27:33Z</time>
      </trkpt>
      <trkpt lat="48.78239" lon="2.26217">
        <ele>123.22</ele>
        <time>2021-09-29T13:27:53Z</time>
      </trkpt>
      <trkpt lat="48.78242" lon="2.26206">
        <ele>123.46</ele>
        <time>2021-09-29T13:28:04Z</time>
      </trkpt>
      <trkpt lat="48.78243" lon="2.26214">
        <ele>122.91</ele>
        <time>2021-09-29T13:28:19Z</time>
      </trkpt>
      <trkpt lat="48.78241" lon="2.26224">
        <ele>123.25</ele>
        <time>2021-09-29T13:28:28Z</time>
      </trkpt>
      <trkpt lat="48.7824" lon="2.26225">
        <ele>123.06</ele>
        <time>2021-09-29T13:28:29Z</time>
      </trkpt>
      <trkpt lat="48.78235" lon="2.2623">
        <ele>123.19</ele>
        <time>2021-09-29T13:28:38Z</time>
      </trkpt>
      <trkpt lat="48.78228" lon="2.26238">
        <ele>122.44</ele>
        <time>2021-09-29T13:28:50Z</time>
      </trkpt>
      <trkpt lat="48.78225" lon="2.26248">
        <ele>123.02</ele>
        <time>2021-09-29T13:29:05Z</time>
      </trkpt>
      <trkpt lat="48.78217" lon="2.26252">
        <ele>122.02</ele>
        <time>2021-09-29T13:29:19Z</time>
      </trkpt>
      <trkpt lat="48.78214" lon="2.2625">
        <ele>121.43</ele>
        <time>2021-09-29T13:29:34Z</time>
      </trkpt>
      <trkpt lat="48.78209" lon="2.26265">
        <ele>121.37</ele>
        <time>2021-09-29T13:29:47Z</time>
      </trkpt>
      <trkpt lat="48.78203" lon="2.26276">
        <ele>120.94</ele>
        <time>2021-09-29T13:30:05Z</time>
      </trkpt>
      <trkpt lat="48.78209" lon="2.26275">
        <ele>120.84</ele>
        <time>2021-09-29T13:30:19Z</time>
      </trkpt>
      <trkpt lat="48.78219" lon="2.26282">
        <ele>119.4</ele>
        <time>2021-09-29T13:30:37Z</time>
      </trkpt>
      <trkpt lat="48.7822" lon="2.26297">
        <ele>119.43</ele>
        <time>2021-09-29T13:30:53Z</time>
      </trkpt>
      <trkpt lat="48.78214" lon="2.26307">
        <ele>119.17</ele>
        <time>2021-09-29T13:31:10Z</time>
      </trkpt>
      <trkpt lat="48.78217" lon="2.26314">
        <ele>119.16</ele>
        <time>2021-09-29T13:31:26Z</time>
      </trkpt>
      <trkpt lat="48.78213" lon="2.26323">
        <ele>119.12</ele>
        <time>2021-09-29T13:31:45Z</time>
      </trkpt>
      <trkpt lat="48.78205" lon="2.2633">
        <ele>119.58</ele>
        <time>2021-09-29T13:31:57Z</time>
      </trkpt>
      <trkpt lat="48.78194" lon="2.26337">
        <ele>119.15</ele>
        <time>2021-09-29T13:32:10Z</time>
      </trkpt>
      <trkpt lat="48.78196" lon="2.26341">
        <ele>118.89</ele>
        <time>2021-09-29T13:32:21Z</time>
      </trkpt>
      <trkpt lat="48.78192" lon="2.26354">
        <ele>119.38</ele>
        <time>2021-09-29T13:32:34Z</time>
      </trkpt>
      <trkpt lat="48.78185" lon="2.26355">
        <ele>120.15</ele>
        <time>2021-09-29T13:32:41Z</time>
      </trkpt>
      <trkpt lat="48.78174" lon="2.26355">
        <ele>119.55</ele>
        <time>2021-09-29T13:32:54Z</time>
      </trkpt>
      <trkpt lat="48.7817" lon="2.26356">
        <ele>119.78</ele>
        <time>2021-09-29T13:33:08Z</time>
      </trkpt>
      <trkpt lat="48.78167" lon="2.26364">
        <ele>119.48</ele>
        <time>2021-09-29T13:33:28Z</time>
      </trkpt>
      <trkpt lat="48.78162" lon="2.26365">
        <ele>120.03</ele>
        <time>2021-09-29T13:33:43Z</time>
      </trkpt>
      <trkpt lat="48.78153" lon="2.26357">
        <ele>121.68</ele>
        <time>2021-09-29T13:34:04Z</time>
      </trkpt>
      <trkpt lat="48.78148" lon="2.26351">
        <ele>121.78</ele>
        <time>2021-09-29T13:34:19Z</time>
      </trkpt>
      <trkpt lat="48.78138" lon="2.26352">
        <ele>122.68</ele>
        <time>2021-09-29T13:34:38Z</time>
      </trkpt>
      <trkpt lat="48.78124" lon="2.26343">
        <ele>123.11</ele>
        <time>2021-09-29T13:34:54Z</time>
      </trkpt>
      <trkpt lat="48.78119" lon="2.26344">
        <ele>123.22</ele>
        <time>2021-09-29T13:35:07Z</time>
      </trkpt>
      <trkpt lat="48.78118" lon="2.26362">
        <ele>122.67</ele>
        <time>2021-09-29T13:35:18Z</time>
      </trkpt>
      <trkpt lat="48.78118" lon="2.26371">
        <ele>122.33</ele>
        <time>2021-09-29T13:35:32Z</time>
      </trkpt>
      <trkpt lat="48.7812" lon="2.26387">
        <ele>123.1</ele>
        <time>2021-09-29T13:35:47Z</time>
      </trkpt>
      <trkpt lat="48.78111" lon="2.26388">
        <ele>121.7</ele>
        <time>2021-09-29T13:36:03Z</time>
      </trkpt>
      <trkpt lat="48.78108" lon="2.26388">
        <ele>123.98</ele>
        <time>2021-09-29T13:36:08Z</time>
      </trkpt>
      <trkpt lat="48.78095" lon="2.26387">
        <ele>126.31</ele>
        <time>2021-09-29T13:36:25Z</time>
      </trkpt>
      <trkpt lat="48.78077" lon="2.26386">
        <ele>128.97</ele>
        <time>2021-09-29T13:36:45Z</time>
      </trkpt>
      <trkpt lat="48.78066" lon="2.26391">
        <ele>130.74</ele>
        <time>2021-09-29T13:37:00Z</time>
      </trkpt>
      <trkpt lat="48.78059" lon="2.26392">
        <ele>131.87</ele>
        <time>2021-09-29T13:37:12Z</time>
      </trkpt>
      <trkpt lat="48.78055" lon="2.26394">
        <ele>134.35</ele>
        <time>2021-09-29T13:37:27Z</time>
      </trkpt>
      <trkpt lat="48.78054" lon="2.26407">
        <ele>136.16</ele>
        <time>2021-09-29T13:37:46Z</time>
      </trkpt>
      <trkpt lat="48.78056" lon="2.26427">
        <ele>137.32</ele>
        <time>2021-09-29T13:38:02Z</time>
      </trkpt>
      <trkpt lat="48.78057" lon="2.26438">
        <ele>138.38</ele>
        <time>2021-09-29T13:38:13Z</time>
      </trkpt>
      <trkpt lat="48.78058" lon="2.2645">
        <ele>138.92</ele>
        <time>2021-09-29T13:38:21Z</time>
      </trkpt>
      <trkpt lat="48.78057" lon="2.26453">
        <ele>138.4</ele>
        <time>2021-09-29T13:38:24Z</time>
      </trkpt>
      <trkpt lat="48.78053" lon="2.26457">
        <ele>137.92</ele>
        <time>2021-09-29T13:38:41Z</time>
      </trkpt>
      <trkpt lat="48.78062" lon="2.26468">
        <ele>137.11</ele>
        <time>2021-09-29T13:38:57Z</time>
      </trkpt>
      <trkpt lat="48.7807" lon="2.2648">
        <ele>135.82</ele>
        <time>2021-09-29T13:39:14Z</time>
      </trkpt>
      <trkpt lat="48.78081" lon="2.26488">
        <ele>135.64</ele>
        <time>2021-09-29T13:39:30Z</time>
      </trkpt>
      <trkpt lat="48.78079" lon="2.26502">
        <ele>136.07</ele>
        <time>2021-09-29T13:39:47Z</time>
      </trkpt>
      <trkpt lat="48.7807" lon="2.26522">
        <ele>136.71</ele>
        <time>2021-09-29T13:40:03Z</time>
      </trkpt>
      <trkpt lat="48.7806" lon="2.26543">
        <ele>137.41</ele>
        <time>2021-09-29T13:40:21Z</time>
      </trkpt>
      <trkpt lat="48.78056" lon="2.26558">
        <ele>138.45</ele>
        <time>2021-09-29T13:40:34Z</time>
      </trkpt>
      <trkpt lat="48.78045" lon="2.26584">
        <ele>138.45</ele>
        <time>2021-09-29T13:40:54Z</time>
      </trkpt>
      <trkpt lat="48.78035" lon="2.26611">
        <ele>139.45</ele>
        <time>2021-09-29T13:41:13Z</time>
      </trkpt>
      <trkpt lat="48.78023" lon="2.26636">
        <ele>140.04</ele>
        <time>2021-09-29T13:41:29Z</time>
      </trkpt>
      <trkpt lat="48.78014" lon="2.26656">
        <ele>140.11</ele>
        <time>2021-09-29T13:41:45Z</time>
      </trkpt>
      <trkpt lat="48.78007" lon="2.26671">
        <ele>140.11</ele>
        <time>2021-09-29T13:42:02Z</time>
      </trkpt>
      <trkpt lat="48.78006" lon="2.26674">
        <ele>139.87</ele>
        <time>2021-09-29T13:42:06Z</time>
      </trkpt>
      <trkpt lat="48.78" lon="2.26693">
        <ele>140.1</ele>
        <time>2021-09-29T13:42:23Z</time>
      </trkpt>
      <trkpt lat="48.77986" lon="2.26726">
        <ele>139.78</ele>
        <time>2021-09-29T13:42:41Z</time>
      </trkpt>
      <trkpt lat="48.77982" lon="2.26741">
        <ele>140.24</ele>
        <time>2021-09-29T13:42:54Z</time>
      </trkpt>
      <trkpt lat="48.77971" lon="2.26766">
        <ele>139.84</ele>
        <time>2021-09-29T13:43:12Z</time>
      </trkpt>
      <trkpt lat="48.77962" lon="2.26789">
        <ele>140.31</ele>
        <time>2021-09-29T13:43:29Z</time>
      </trkpt>
      <trkpt lat="48.77953" lon="2.26808">
        <ele>140.56</ele>
        <time>2021-09-29T13:43:42Z</time>
      </trkpt>
      <trkpt lat="48.77945" lon="2.26828">
        <ele>139.49</ele>
        <time>2021-09-29T13:43:58Z</time>
      </trkpt>
      <trkpt lat="48.77937" lon="2.26836">
        <ele>139.22</ele>
        <time>2021-09-29T13:44:15Z</time>
      </trkpt>
      <trkpt lat="48.77923" lon="2.26841">
        <ele>140.25</ele>
        <time>2021-09-29T13:44:32Z</time>
      </trkpt>
      <trkpt lat="48.77906" lon="2.26851">
        <ele>140.77</ele>
        <time>2021-09-29T13:44:49Z</time>
      </trkpt>
      <trkpt lat="48.7789" lon="2.26858">
        <ele>140.56</ele>
        <time>2021-09-29T13:45:04Z</time>
      </trkpt>
      <trkpt lat="48.7788" lon="2.26862">
        <ele>140.43</ele>
        <time>2021-09-29T13:45:15Z</time>
      </trkpt>
      <trkpt lat="48.77867" lon="2.26867">
        <ele>140.14</ele>
        <time>2021-09-29T13:45:29Z</time>
      </trkpt>
      <trkpt lat="48.77859" lon="2.26874">
        <ele>140.9</ele>
        <time>2021-09-29T13:45:39Z</time>
      </trkpt>
      <trkpt lat="48.7785" lon="2.26876">
        <ele>141.23</ele>
        <time>2021-09-29T13:45:50Z</time>
      </trkpt>
      <trkpt lat="48.77837" lon="2.26885">
        <ele>141.22</ele>
        <time>2021-09-29T13:46:05Z</time>
      </trkpt>
      <trkpt lat="48.77835" lon="2.26885">
        <ele>145.32</ele>
        <time>2021-09-29T13:46:29Z</time>
      </trkpt>
      <trkpt lat="48.77836" lon="2.26885">
        <ele>140.79</ele>
        <time>2021-09-29T13:46:30Z</time>
      </trkpt>
      <trkpt lat="48.77837" lon="2.26889">
        <ele>141.37</ele>
        <time>2021-09-29T13:46:45Z</time>
      </trkpt>
      <trkpt lat="48.77837" lon="2.26889">
        <ele>140.86</ele>
        <time>2021-09-29T13:47:03Z</time>
      </trkpt>
      <trkpt lat="48.77835" lon="2.26885">
        <ele>140.63</ele>
        <time>2021-09-29T13:47:33Z</time>
      </trkpt>
      <trkpt lat="48.77836" lon="2.26885">
        <ele>141.2</ele>
        <time>2021-09-29T13:47:58Z</time>
      </trkpt>
      <trkpt lat="48.77834" lon="2.26887">
        <ele>141.67</ele>
        <time>2021-09-29T13:48:29Z</time>
      </trkpt>
      <trkpt lat="48.77834" lon="2.26888">
        <ele>142.51</ele>
        <time>2021-09-29T13:48:52Z</time>
      </trkpt>
      <trkpt lat="48.77835" lon="2.26887">
        <ele>141.94</ele>
        <time>2021-09-29T13:49:23Z</time>
      </trkpt>
      <trkpt lat="48.77836" lon="2.26887">
        <ele>141.78</ele>
        <time>2021-09-29T13:49:44Z</time>
      </trkpt>
      <trkpt lat="48.77837" lon="2.26885">
        <ele>141.79</ele>
        <time>2021-09-29T13:50:05Z</time>
      </trkpt>
      <trkpt lat="48.77834" lon="2.26888">
        <ele>141.66</ele>
        <time>2021-09-29T13:50:31Z</time>
      </trkpt>
      <trkpt lat="48.77834" lon="2.26888">
        <ele>143.32</ele>
        <time>2021-09-29T13:51:01Z</time>
      </trkpt>
      <trkpt lat="48.77834" lon="2.26886">
        <ele>141.75</ele>
        <time>2021-09-29T13:51:05Z</time>
      </trkpt>
      <trkpt lat="48.77833" lon="2.26874">
        <ele>142.39</ele>
        <time>2021-09-29T13:51:22Z</time>
      </trkpt>
      <trkpt lat="48.77828" lon="2.26867">
        <ele>143.41</ele>
        <time>2021-09-29T13:51:39Z</time>
      </trkpt>
      <trkpt lat="48.77825" lon="2.26859">
        <ele>143.55</ele>
        <time>2021-09-29T13:51:55Z</time>
      </trkpt>
      <trkpt lat="48.77822" lon="2.26853">
        <ele>143.7</ele>
        <time>2021-09-29T13:52:11Z</time>
      </trkpt>
      <trkpt lat="48.77821" lon="2.2685">
        <ele>143.41</ele>
        <time>2021-09-29T13:52:31Z</time>
      </trkpt>
      <trkpt lat="48.77822" lon="2.26855">
        <ele>143.16</ele>
        <time>2021-09-29T13:52:50Z</time>
      </trkpt>
      <trkpt lat="48.77822" lon="2.26855">
        <ele>143.32</ele>
        <time>2021-09-29T13:53:07Z</time>
      </trkpt>
      <trkpt lat="48.77821" lon="2.26856">
        <ele>143.67</ele>
        <time>2021-09-29T13:53:29Z</time>
      </trkpt>
      <trkpt lat="48.7782" lon="2.26855">
        <ele>143.63</ele>
        <time>2021-09-29T13:53:46Z</time>
      </trkpt>
      <trkpt lat="48.77821" lon="2.26858">
        <ele>143.12</ele>
        <time>2021-09-29T13:54:07Z</time>
      </trkpt>
      <trkpt lat="48.77821" lon="2.26855">
        <ele>143.59</ele>
        <time>2021-09-29T13:54:25Z</time>
      </trkpt>
      <trkpt lat="48.77822" lon="2.26856">
        <ele>143.9</ele>
        <time>2021-09-29T13:54:40Z</time>
      </trkpt>
      <trkpt lat="48.77821" lon="2.26855">
        <ele>143.31</ele>
        <time>2021-09-29T13:54:56Z</time>
      </trkpt>
      <trkpt lat="48.77817" lon="2.2684">
        <ele>143.99</ele>
        <time>2021-09-29T13:55:12Z</time>
      </trkpt>
      <trkpt lat="48.7781" lon="2.26824">
        <ele>143.52</ele>
        <time>2021-09-29T13:55:29Z</time>
      </trkpt>
      <trkpt lat="48.77801" lon="2.26809">
        <ele>144.64</ele>
        <time>2021-09-29T13:55:48Z</time>
      </trkpt>
      <trkpt lat="48.77793" lon="2.26792">
        <ele>145.63</ele>
        <time>2021-09-29T13:56:06Z</time>
      </trkpt>
      <trkpt lat="48.77783" lon="2.26771">
        <ele>145.61</ele>
        <time>2021-09-29T13:56:27Z</time>
      </trkpt>
      <trkpt lat="48.77774" lon="2.26755">
        <ele>145.34</ele>
        <time>2021-09-29T13:56:43Z</time>
      </trkpt>
      <trkpt lat="48.77767" lon="2.2674">
        <ele>146.65</ele>
        <time>2021-09-29T13:56:59Z</time>
      </trkpt>
      <trkpt lat="48.77758" lon="2.26735">
        <ele>145.84</ele>
        <time>2021-09-29T13:57:16Z</time>
      </trkpt>
      <trkpt lat="48.77754" lon="2.26732">
        <ele>145.51</ele>
        <time>2021-09-29T13:57:31Z</time>
      </trkpt>
      <trkpt lat="48.77747" lon="2.26733">
        <ele>142.18</ele>
        <time>2021-09-29T13:57:46Z</time>
      </trkpt>
      <trkpt lat="48.77745" lon="2.26745">
        <ele>141.43</ele>
        <time>2021-09-29T13:58:01Z</time>
      </trkpt>
      <trkpt lat="48.7774" lon="2.26754">
        <ele>140.65</ele>
        <time>2021-09-29T13:58:15Z</time>
      </trkpt>
      <trkpt lat="48.77738" lon="2.26754">
        <ele>140.8</ele>
        <time>2021-09-29T13:58:37Z</time>
      </trkpt>
      <trkpt lat="48.77734" lon="2.26744">
        <ele>141.87</ele>
        <time>2021-09-29T13:58:54Z</time>
      </trkpt>
      <trkpt lat="48.77732" lon="2.26736">
        <ele>141.43</ele>
        <time>2021-09-29T13:59:05Z</time>
      </trkpt>
      <trkpt lat="48.77728" lon="2.26727">
        <ele>143.39</ele>
        <time>2021-09-29T13:59:22Z</time>
      </trkpt>
      <trkpt lat="48.77722" lon="2.26708">
        <ele>143.97</ele>
        <time>2021-09-29T13:59:37Z</time>
      </trkpt>
      <trkpt lat="48.77717" lon="2.26696">
        <ele>144.19</ele>
        <time>2021-09-29T13:59:46Z</time>
      </trkpt>
      <trkpt lat="48.77706" lon="2.26672">
        <ele>146.19</ele>
        <time>2021-09-29T14:00:04Z</time>
      </trkpt>
      <trkpt lat="48.77698" lon="2.2666">
        <ele>146.47</ele>
        <time>2021-09-29T14:00:16Z</time>
      </trkpt>
      <trkpt lat="48.7769" lon="2.26649">
        <ele>147.25</ele>
        <time>2021-09-29T14:00:31Z</time>
      </trkpt>
      <trkpt lat="48.77681" lon="2.26641">
        <ele>147.42</ele>
        <time>2021-09-29T14:00:45Z</time>
      </trkpt>
      <trkpt lat="48.7767" lon="2.26625">
        <ele>146.77</ele>
        <time>2021-09-29T14:01:03Z</time>
      </trkpt>
      <trkpt lat="48.77663" lon="2.2662">
        <ele>146.44</ele>
        <time>2021-09-29T14:01:13Z</time>
      </trkpt>
      <trkpt lat="48.77653" lon="2.26616">
        <ele>146.95</ele>
        <time>2021-09-29T14:01:29Z</time>
      </trkpt>
      <trkpt lat="48.77644" lon="2.26611">
        <ele>147.22</ele>
        <time>2021-09-29T14:01:40Z</time>
      </trkpt>
      <trkpt lat="48.77629" lon="2.26597">
        <ele>146.93</ele>
        <time>2021-09-29T14:01:58Z</time>
      </trkpt>
      <trkpt lat="48.77625" lon="2.26594">
        <ele>149.2</ele>
        <time>2021-09-29T14:02:06Z</time>
      </trkpt>
      <trkpt lat="48.77623" lon="2.26588">
        <ele>149.4</ele>
        <time>2021-09-29T14:02:16Z</time>
      </trkpt>
      <trkpt lat="48.7762" lon="2.26585">
        <ele>148.77</ele>
        <time>2021-09-29T14:02:27Z</time>
      </trkpt>
      <trkpt lat="48.77609" lon="2.26563">
        <ele>149.8</ele>
        <time>2021-09-29T14:02:44Z</time>
      </trkpt>
      <trkpt lat="48.77607" lon="2.26556">
        <ele>147.47</ele>
        <time>2021-09-29T14:02:52Z</time>
      </trkpt>
      <trkpt lat="48.77606" lon="2.26552">
        <ele>147.48</ele>
        <time>2021-09-29T14:03:10Z</time>
      </trkpt>
      <trkpt lat="48.77603" lon="2.26535">
        <ele>148.85</ele>
        <time>2021-09-29T14:03:27Z</time>
      </trkpt>
      <trkpt lat="48.77597" lon="2.26538">
        <ele>147.4</ele>
        <time>2021-09-29T14:03:40Z</time>
      </trkpt>
      <trkpt lat="48.7759" lon="2.26552">
        <ele>145.59</ele>
        <time>2021-09-29T14:03:58Z</time>
      </trkpt>
      <trkpt lat="48.77578" lon="2.26567">
        <ele>142.55</ele>
        <time>2021-09-29T14:04:19Z</time>
      </trkpt>
      <trkpt lat="48.77565" lon="2.26584">
        <ele>140.69</ele>
        <time>2021-09-29T14:04:37Z</time>
      </trkpt>
      <trkpt lat="48.77554" lon="2.26598">
        <ele>139.68</ele>
        <time>2021-09-29T14:04:54Z</time>
      </trkpt>
      <trkpt lat="48.77543" lon="2.26616">
        <ele>138.24</ele>
        <time>2021-09-29T14:05:12Z</time>
      </trkpt>
      <trkpt lat="48.77532" lon="2.26633">
        <ele>137.67</ele>
        <time>2021-09-29T14:05:30Z</time>
      </trkpt>
      <trkpt lat="48.77522" lon="2.26646">
        <ele>135.87</ele>
        <time>2021-09-29T14:05:48Z</time>
      </trkpt>
      <trkpt lat="48.77512" lon="2.26662">
        <ele>134.48</ele>
        <time>2021-09-29T14:06:06Z</time>
      </trkpt>
      <trkpt lat="48.77507" lon="2.26671">
        <ele>131.47</ele>
        <time>2021-09-29T14:06:23Z</time>
      </trkpt>
      <trkpt lat="48.77502" lon="2.2668">
        <ele>128.46</ele>
        <time>2021-09-29T14:06:39Z</time>
      </trkpt>
      <trkpt lat="48.77496" lon="2.26681">
        <ele>127.8</ele>
        <time>2021-09-29T14:06:56Z</time>
      </trkpt>
      <trkpt lat="48.77496" lon="2.26681">
        <ele>127.41</ele>
        <time>2021-09-29T14:06:57Z</time>
      </trkpt>
      <trkpt lat="48.77497" lon="2.26689">
        <ele>126.19</ele>
        <time>2021-09-29T14:07:15Z</time>
      </trkpt>
      <trkpt lat="48.77499" lon="2.26692">
        <ele>127.41</ele>
        <time>2021-09-29T14:07:31Z</time>
      </trkpt>
      <trkpt lat="48.7751" lon="2.26696">
        <ele>125.55</ele>
        <time>2021-09-29T14:07:48Z</time>
      </trkpt>
      <trkpt lat="48.77516" lon="2.26699">
        <ele>122.47</ele>
        <time>2021-09-29T14:08:06Z</time>
      </trkpt>
      <trkpt lat="48.77524" lon="2.26701">
        <ele>120.88</ele>
        <time>2021-09-29T14:08:23Z</time>
      </trkpt>
      <trkpt lat="48.77538" lon="2.26701">
        <ele>118.73</ele>
        <time>2021-09-29T14:08:45Z</time>
      </trkpt>
      <trkpt lat="48.77565" lon="2.26703">
        <ele>117.75</ele>
        <time>2021-09-29T14:09:03Z</time>
      </trkpt>
      <trkpt lat="48.7757" lon="2.2671">
        <ele>115.77</ele>
        <time>2021-09-29T14:09:18Z</time>
      </trkpt>
      <trkpt lat="48.77563" lon="2.26709">
        <ele>116.12</ele>
        <time>2021-09-29T14:09:33Z</time>
      </trkpt>
      <trkpt lat="48.77558" lon="2.26713">
        <ele>116.2</ele>
        <time>2021-09-29T14:09:50Z</time>
      </trkpt>
      <trkpt lat="48.77547" lon="2.26722">
        <ele>117.33</ele>
        <time>2021-09-29T14:10:07Z</time>
      </trkpt>
      <trkpt lat="48.7753" lon="2.26722">
        <ele>117.32</ele>
        <time>2021-09-29T14:10:23Z</time>
      </trkpt>
      <trkpt lat="48.77516" lon="2.26722">
        <ele>116.49</ele>
        <time>2021-09-29T14:10:42Z</time>
      </trkpt>
      <trkpt lat="48.775" lon="2.2672">
        <ele>115.56</ele>
        <time>2021-09-29T14:11:00Z</time>
      </trkpt>
      <trkpt lat="48.77479" lon="2.26721">
        <ele>115.27</ele>
        <time>2021-09-29T14:11:21Z</time>
      </trkpt>
      <trkpt lat="48.77459" lon="2.26725">
        <ele>113.42</ele>
        <time>2021-09-29T14:11:41Z</time>
      </trkpt>
      <trkpt lat="48.77438" lon="2.26726">
        <ele>112.45</ele>
        <time>2021-09-29T14:12:02Z</time>
      </trkpt>
      <trkpt lat="48.77428" lon="2.26721">
        <ele>112.19</ele>
        <time>2021-09-29T14:12:09Z</time>
      </trkpt>
      <trkpt lat="48.77417" lon="2.26713">
        <ele>110.17</ele>
        <time>2021-09-29T14:12:24Z</time>
      </trkpt>
      <trkpt lat="48.77411" lon="2.26699">
        <ele>108.97</ele>
        <time>2021-09-29T14:12:41Z</time>
      </trkpt>
      <trkpt lat="48.77412" lon="2.26673">
        <ele>107.56</ele>
        <time>2021-09-29T14:12:59Z</time>
      </trkpt>
      <trkpt lat="48.77414" lon="2.26647">
        <ele>105.7</ele>
        <time>2021-09-29T14:13:15Z</time>
      </trkpt>
      <trkpt lat="48.77413" lon="2.26639">
        <ele>106.37</ele>
        <time>2021-09-29T14:13:19Z</time>
      </trkpt>
      <trkpt lat="48.77405" lon="2.26627">
        <ele>105.36</ele>
        <time>2021-09-29T14:13:31Z</time>
      </trkpt>
      <trkpt lat="48.77404" lon="2.26628">
        <ele>104.67</ele>
        <time>2021-09-29T14:13:50Z</time>
      </trkpt>
      <trkpt lat="48.77394" lon="2.26632">
        <ele>103.67</ele>
        <time>2021-09-29T14:14:07Z</time>
      </trkpt>
      <trkpt lat="48.7739" lon="2.26642">
        <ele>104.13</ele>
        <time>2021-09-29T14:14:30Z</time>
      </trkpt>
      <trkpt lat="48.77388" lon="2.26644">
        <ele>104.71</ele>
        <time>2021-09-29T14:14:48Z</time>
      </trkpt>
      <trkpt lat="48.77383" lon="2.26644">
        <ele>103.41</ele>
        <time>2021-09-29T14:15:06Z</time>
      </trkpt>
      <trkpt lat="48.7738" lon="2.26648">
        <ele>103.45</ele>
        <time>2021-09-29T14:15:22Z</time>
      </trkpt>
      <trkpt lat="48.77382" lon="2.26645">
        <ele>103.05</ele>
        <time>2021-09-29T14:15:39Z</time>
      </trkpt>
      <trkpt lat="48.77379" lon="2.26652">
        <ele>101.64</ele>
        <time>2021-09-29T14:15:55Z</time>
      </trkpt>
      <trkpt lat="48.77374" lon="2.26666">
        <ele>100.28</ele>
        <time>2021-09-29T14:16:08Z</time>
      </trkpt>
      <trkpt lat="48.77361" lon="2.26699">
        <ele>98.92</ele>
        <time>2021-09-29T14:16:29Z</time>
      </trkpt>
      <trkpt lat="48.77358" lon="2.2671">
        <ele>98.97</ele>
        <time>2021-09-29T14:16:33Z</time>
      </trkpt>
      <trkpt lat="48.7736" lon="2.26711">
        <ele>98.42</ele>
        <time>2021-09-29T14:16:46Z</time>
      </trkpt>
      <trkpt lat="48.77352" lon="2.26731">
        <ele>96.94</ele>
        <time>2021-09-29T14:17:02Z</time>
      </trkpt>
      <trkpt lat="48.77347" lon="2.26741">
        <ele>95.94</ele>
        <time>2021-09-29T14:17:13Z</time>
      </trkpt>
      <trkpt lat="48.77338" lon="2.26754">
        <ele>96.36</ele>
        <time>2021-09-29T14:17:28Z</time>
      </trkpt>
      <trkpt lat="48.77334" lon="2.26759">
        <ele>95.27</ele>
        <time>2021-09-29T14:17:44Z</time>
      </trkpt>
      <trkpt lat="48.77333" lon="2.26764">
        <ele>96.1</ele>
        <time>2021-09-29T14:17:59Z</time>
      </trkpt>
      <trkpt lat="48.77331" lon="2.26765">
        <ele>95.61</ele>
        <time>2021-09-29T14:18:20Z</time>
      </trkpt>
      <trkpt lat="48.7733" lon="2.2676">
        <ele>96.13</ele>
        <time>2021-09-29T14:18:36Z</time>
      </trkpt>
      <trkpt lat="48.7733" lon="2.26756">
        <ele>97.04</ele>
        <time>2021-09-29T14:18:55Z</time>
      </trkpt>
      <trkpt lat="48.77327" lon="2.26758">
        <ele>96.18</ele>
        <time>2021-09-29T14:19:10Z</time>
      </trkpt>
      <trkpt lat="48.77329" lon="2.2676">
        <ele>96.93</ele>
        <time>2021-09-29T14:19:25Z</time>
      </trkpt>
      <trkpt lat="48.7733" lon="2.26762">
        <ele>96.94</ele>
        <time>2021-09-29T14:19:48Z</time>
      </trkpt>
      <trkpt lat="48.77331" lon="2.26763">
        <ele>97.46</ele>
        <time>2021-09-29T14:20:10Z</time>
      </trkpt>
      <trkpt lat="48.7733" lon="2.26761">
        <ele>96.98</ele>
        <time>2021-09-29T14:20:29Z</time>
      </trkpt>
      <trkpt lat="48.77324" lon="2.26767">
        <ele>97.16</ele>
        <time>2021-09-29T14:20:42Z</time>
      </trkpt>
      <trkpt lat="48.77323" lon="2.2677">
        <ele>95.14</ele>
        <time>2021-09-29T14:20:44Z</time>
      </trkpt>
      <trkpt lat="48.77316" lon="2.2678">
        <ele>95.95</ele>
        <time>2021-09-29T14:20:59Z</time>
      </trkpt>
      <trkpt lat="48.77311" lon="2.26786">
        <ele>95.24</ele>
        <time>2021-09-29T14:21:14Z</time>
      </trkpt>
      <trkpt lat="48.77304" lon="2.26789">
        <ele>95.01</ele>
        <time>2021-09-29T14:21:27Z</time>
      </trkpt>
      <trkpt lat="48.77298" lon="2.26801">
        <ele>93.76</ele>
        <time>2021-09-29T14:21:42Z</time>
      </trkpt>
      <trkpt lat="48.77294" lon="2.26804">
        <ele>93.58</ele>
        <time>2021-09-29T14:21:55Z</time>
      </trkpt>
      <trkpt lat="48.77292" lon="2.26811">
        <ele>94.35</ele>
        <time>2021-09-29T14:22:09Z</time>
      </trkpt>
      <trkpt lat="48.77293" lon="2.26813">
        <ele>94.19</ele>
        <time>2021-09-29T14:22:25Z</time>
      </trkpt>
      <trkpt lat="48.77292" lon="2.26812">
        <ele>94.37</ele>
        <time>2021-09-29T14:22:45Z</time>
      </trkpt>
      <trkpt lat="48.77294" lon="2.26817">
        <ele>94.19</ele>
        <time>2021-09-29T14:23:15Z</time>
      </trkpt>
      <trkpt lat="48.77302" lon="2.26824">
        <ele>94.51</ele>
        <time>2021-09-29T14:23:31Z</time>
      </trkpt>
      <trkpt lat="48.77309" lon="2.26835">
        <ele>94.52</ele>
        <time>2021-09-29T14:23:46Z</time>
      </trkpt>
      <trkpt lat="48.77312" lon="2.26841">
        <ele>94.64</ele>
        <time>2021-09-29T14:23:58Z</time>
      </trkpt>
      <trkpt lat="48.77306" lon="2.26828">
        <ele>95.19</ele>
        <time>2021-09-29T14:24:17Z</time>
      </trkpt>
      <trkpt lat="48.77308" lon="2.26831">
        <ele>94.91</ele>
        <time>2021-09-29T14:24:33Z</time>
      </trkpt>
      <trkpt lat="48.77312" lon="2.26838">
        <ele>94.39</ele>
        <time>2021-09-29T14:24:50Z</time>
      </trkpt>
      <trkpt lat="48.77319" lon="2.26848">
        <ele>94.89</ele>
        <time>2021-09-29T14:25:07Z</time>
      </trkpt>
      <trkpt lat="48.77323" lon="2.26856">
        <ele>94.53</ele>
        <time>2021-09-29T14:25:19Z</time>
      </trkpt>
      <trkpt lat="48.77328" lon="2.26862">
        <ele>94.52</ele>
        <time>2021-09-29T14:25:33Z</time>
      </trkpt>
      <trkpt lat="48.77332" lon="2.26872">
        <ele>94.81</ele>
        <time>2021-09-29T14:25:52Z</time>
      </trkpt>
      <trkpt lat="48.77334" lon="2.26876">
        <ele>94.04</ele>
        <time>2021-09-29T14:26:08Z</time>
      </trkpt>
      <trkpt lat="48.7734" lon="2.26886">
        <ele>93.93</ele>
        <time>2021-09-29T14:26:26Z</time>
      </trkpt>
      <trkpt lat="48.77343" lon="2.26891">
        <ele>94.5</ele>
        <time>2021-09-29T14:26:45Z</time>
      </trkpt>
      <trkpt lat="48.77342" lon="2.26898">
        <ele>92.06</ele>
        <time>2021-09-29T14:27:03Z</time>
      </trkpt>
      <trkpt lat="48.77341" lon="2.26895">
        <ele>91.99</ele>
        <time>2021-09-29T14:27:22Z</time>
      </trkpt>
      <trkpt lat="48.77337" lon="2.26897">
        <ele>91.8</ele>
        <time>2021-09-29T14:27:42Z</time>
      </trkpt>
      <trkpt lat="48.77333" lon="2.26904">
        <ele>91.37</ele>
        <time>2021-09-29T14:27:54Z</time>
      </trkpt>
      <trkpt lat="48.77328" lon="2.26913">
        <ele>90.81</ele>
        <time>2021-09-29T14:28:09Z</time>
      </trkpt>
      <trkpt lat="48.77325" lon="2.26926">
        <ele>90.23</ele>
        <time>2021-09-29T14:28:22Z</time>
      </trkpt>
      <trkpt lat="48.77323" lon="2.26938">
        <ele>89.97</ele>
        <time>2021-09-29T14:28:35Z</time>
      </trkpt>
      <trkpt lat="48.77322" lon="2.26943">
        <ele>89.16</ele>
        <time>2021-09-29T14:28:40Z</time>
      </trkpt>
      <trkpt lat="48.7732" lon="2.26955">
        <ele>88.74</ele>
        <time>2021-09-29T14:28:50Z</time>
      </trkpt>
      <trkpt lat="48.77324" lon="2.26973">
        <ele>88.16</ele>
        <time>2021-09-29T14:29:07Z</time>
      </trkpt>
      <trkpt lat="48.77323" lon="2.26995">
        <ele>87.63</ele>
        <time>2021-09-29T14:29:21Z</time>
      </trkpt>
      <trkpt lat="48.77323" lon="2.27012">
        <ele>87.31</ele>
        <time>2021-09-29T14:29:36Z</time>
      </trkpt>
      <trkpt lat="48.77324" lon="2.2702">
        <ele>86.62</ele>
        <time>2021-09-29T14:29:50Z</time>
      </trkpt>
      <trkpt lat="48.77325" lon="2.27019">
        <ele>86.98</ele>
        <time>2021-09-29T14:30:11Z</time>
      </trkpt>
      <trkpt lat="48.77324" lon="2.27019">
        <ele>87.35</ele>
        <time>2021-09-29T14:30:29Z</time>
      </trkpt>
      <trkpt lat="48.77325" lon="2.27024">
        <ele>86.56</ele>
        <time>2021-09-29T14:30:48Z</time>
      </trkpt>
      <trkpt lat="48.77323" lon="2.27031">
        <ele>86.54</ele>
        <time>2021-09-29T14:31:06Z</time>
      </trkpt>
      <trkpt lat="48.77319" lon="2.27047">
        <ele>86.02</ele>
        <time>2021-09-29T14:31:23Z</time>
      </trkpt>
      <trkpt lat="48.77316" lon="2.27058">
        <ele>85.71</ele>
        <time>2021-09-29T14:31:40Z</time>
      </trkpt>
      <trkpt lat="48.77312" lon="2.27074">
        <ele>85.71</ele>
        <time>2021-09-29T14:31:59Z</time>
      </trkpt>
      <trkpt lat="48.77307" lon="2.27088">
        <ele>84.98</ele>
        <time>2021-09-29T14:32:15Z</time>
      </trkpt>
      <trkpt lat="48.77302" lon="2.27103">
        <ele>85.09</ele>
        <time>2021-09-29T14:32:31Z</time>
      </trkpt>
      <trkpt lat="48.77294" lon="2.27119">
        <ele>84.59</ele>
        <time>2021-09-29T14:32:45Z</time>
      </trkpt>
      <trkpt lat="48.77284" lon="2.2713">
        <ele>84.63</ele>
        <time>2021-09-29T14:33:01Z</time>
      </trkpt>
      <trkpt lat="48.77275" lon="2.27141">
        <ele>83.97</ele>
        <time>2021-09-29T14:33:17Z</time>
      </trkpt>
      <trkpt lat="48.77266" lon="2.27149">
        <ele>83.83</ele>
        <time>2021-09-29T14:33:31Z</time>
      </trkpt>
      <trkpt lat="48.77253" lon="2.2716">
        <ele>83.86</ele>
        <time>2021-09-29T14:33:49Z</time>
      </trkpt>
      <trkpt lat="48.77244" lon="2.27169">
        <ele>84.1</ele>
        <time>2021-09-29T14:34:05Z</time>
      </trkpt>
      <trkpt lat="48.77238" lon="2.27169">
        <ele>84.08</ele>
        <time>2021-09-29T14:34:22Z</time>
      </trkpt>
      <trkpt lat="48.77238" lon="2.27168">
        <ele>84.04</ele>
        <time>2021-09-29T14:34:39Z</time>
      </trkpt>
      <trkpt lat="48.77231" lon="2.27172">
        <ele>83.95</ele>
        <time>2021-09-29T14:34:54Z</time>
      </trkpt>
      <trkpt lat="48.7722" lon="2.27178">
        <ele>84.53</ele>
        <time>2021-09-29T14:35:12Z</time>
      </trkpt>
      <trkpt lat="48.77206" lon="2.27184">
        <ele>84.65</ele>
        <time>2021-09-29T14:35:31Z</time>
      </trkpt>
      <trkpt lat="48.77198" lon="2.27188">
        <ele>85.12</ele>
        <time>2021-09-29T14:35:39Z</time>
      </trkpt>
      <trkpt lat="48.77188" lon="2.27189">
        <ele>85.38</ele>
        <time>2021-09-29T14:35:51Z</time>
      </trkpt>
      <trkpt lat="48.77178" lon="2.27192">
        <ele>86.66</ele>
        <time>2021-09-29T14:36:04Z</time>
      </trkpt>
      <trkpt lat="48.77168" lon="2.27195">
        <ele>86.49</ele>
        <time>2021-09-29T14:36:20Z</time>
      </trkpt>
      <trkpt lat="48.77155" lon="2.27195">
        <ele>87.06</ele>
        <time>2021-09-29T14:36:38Z</time>
      </trkpt>
      <trkpt lat="48.77146" lon="2.2719">
        <ele>87.43</ele>
        <time>2021-09-29T14:36:56Z</time>
      </trkpt>
      <trkpt lat="48.77132" lon="2.27183">
        <ele>88.04</ele>
        <time>2021-09-29T14:37:14Z</time>
      </trkpt>
      <trkpt lat="48.77121" lon="2.27167">
        <ele>89.33</ele>
        <time>2021-09-29T14:37:32Z</time>
      </trkpt>
      <trkpt lat="48.77117" lon="2.27152">
        <ele>89.67</ele>
        <time>2021-09-29T14:37:48Z</time>
      </trkpt>
      <trkpt lat="48.77117" lon="2.27149">
        <ele>89.06</ele>
        <time>2021-09-29T14:38:06Z</time>
      </trkpt>
      <trkpt lat="48.7711" lon="2.27134">
        <ele>89.8</ele>
        <time>2021-09-29T14:38:38Z</time>
      </trkpt>
      <trkpt lat="48.77113" lon="2.27123">
        <ele>89.42</ele>
        <time>2021-09-29T14:38:53Z</time>
      </trkpt>
      <trkpt lat="48.77113" lon="2.27117">
        <ele>90.44</ele>
        <time>2021-09-29T14:39:09Z</time>
      </trkpt>
      <trkpt lat="48.77114" lon="2.27121">
        <ele>89.93</ele>
        <time>2021-09-29T14:39:28Z</time>
      </trkpt>
      <trkpt lat="48.77114" lon="2.27121">
        <ele>90.01</ele>
        <time>2021-09-29T14:39:50Z</time>
      </trkpt>
      <trkpt lat="48.77116" lon="2.27119">
        <ele>89.33</ele>
        <time>2021-09-29T14:39:59Z</time>
      </trkpt>
      <trkpt lat="48.77116" lon="2.2712">
        <ele>89.64</ele>
        <time>2021-09-29T14:40:21Z</time>
      </trkpt>
      <trkpt lat="48.77118" lon="2.27122">
        <ele>89.13</ele>
        <time>2021-09-29T14:40:46Z</time>
      </trkpt>
      <trkpt lat="48.77118" lon="2.27124">
        <ele>88.87</ele>
        <time>2021-09-29T14:40:52Z</time>
      </trkpt>
      <trkpt lat="48.77119" lon="2.27113">
        <ele>89.35</ele>
        <time>2021-09-29T14:41:11Z</time>
      </trkpt>
      <trkpt lat="48.77118" lon="2.27104">
        <ele>88.8</ele>
        <time>2021-09-29T14:41:21Z</time>
      </trkpt>
      <trkpt lat="48.77117" lon="2.2709">
        <ele>89.85</ele>
        <time>2021-09-29T14:41:37Z</time>
      </trkpt>
      <trkpt lat="48.7712" lon="2.27088">
        <ele>89.84</ele>
        <time>2021-09-29T14:41:51Z</time>
      </trkpt>
      <trkpt lat="48.77119" lon="2.2709">
        <ele>89.01</ele>
        <time>2021-09-29T14:42:31Z</time>
      </trkpt>
      <trkpt lat="48.77119" lon="2.27089">
        <ele>89.52</ele>
        <time>2021-09-29T14:43:14Z</time>
      </trkpt>
      <trkpt lat="48.77118" lon="2.27086">
        <ele>90.04</ele>
        <time>2021-09-29T14:43:52Z</time>
      </trkpt>
      <trkpt lat="48.77118" lon="2.27069">
        <ele>90.54</ele>
        <time>2021-09-29T14:44:06Z</time>
      </trkpt>
      <trkpt lat="48.7712" lon="2.2705">
        <ele>90.83</ele>
        <time>2021-09-29T14:44:21Z</time>
      </trkpt>
      <trkpt lat="48.77122" lon="2.27038">
        <ele>91.07</ele>
        <time>2021-09-29T14:44:36Z</time>
      </trkpt>
      <trkpt lat="48.77121" lon="2.27024">
        <ele>90.97</ele>
        <time>2021-09-29T14:44:56Z</time>
      </trkpt>
      <trkpt lat="48.77117" lon="2.27019">
        <ele>91.11</ele>
        <time>2021-09-29T14:45:12Z</time>
      </trkpt>
      <trkpt lat="48.77117" lon="2.27012">
        <ele>91.25</ele>
        <time>2021-09-29T14:45:28Z</time>
      </trkpt>
      <trkpt lat="48.77112" lon="2.26994">
        <ele>90.8</ele>
        <time>2021-09-29T14:45:43Z</time>
      </trkpt>
      <trkpt lat="48.77108" lon="2.2698">
        <ele>91.06</ele>
        <time>2021-09-29T14:45:56Z</time>
      </trkpt>
      <trkpt lat="48.77107" lon="2.26976">
        <ele>91.54</ele>
        <time>2021-09-29T14:46:00Z</time>
      </trkpt>
      <trkpt lat="48.77104" lon="2.26967">
        <ele>91.2</ele>
        <time>2021-09-29T14:46:14Z</time>
      </trkpt>
      <trkpt lat="48.77102" lon="2.26957">
        <ele>91.12</ele>
        <time>2021-09-29T14:46:28Z</time>
      </trkpt>
      <trkpt lat="48.77102" lon="2.26946">
        <ele>90.72</ele>
        <time>2021-09-29T14:46:39Z</time>
      </trkpt>
      <trkpt lat="48.77094" lon="2.26939">
        <ele>91.3</ele>
        <time>2021-09-29T14:46:55Z</time>
      </trkpt>
      <trkpt lat="48.77088" lon="2.26939">
        <ele>91.6</ele>
        <time>2021-09-29T14:47:13Z</time>
      </trkpt>
      <trkpt lat="48.77076" lon="2.26952">
        <ele>92.9</ele>
        <time>2021-09-29T14:47:35Z</time>
      </trkpt>
      <trkpt lat="48.77067" lon="2.26957">
        <ele>92.84</ele>
        <time>2021-09-29T14:47:51Z</time>
      </trkpt>
      <trkpt lat="48.77059" lon="2.26975">
        <ele>93.64</ele>
        <time>2021-09-29T14:48:09Z</time>
      </trkpt>
      <trkpt lat="48.77061" lon="2.2699">
        <ele>93.25</ele>
        <time>2021-09-29T14:48:22Z</time>
      </trkpt>
      <trkpt lat="48.77068" lon="2.26996">
        <ele>93.38</ele>
        <time>2021-09-29T14:48:40Z</time>
      </trkpt>
      <trkpt lat="48.77071" lon="2.26994">
        <ele>93.42</ele>
        <time>2021-09-29T14:48:44Z</time>
      </trkpt>
      <trkpt lat="48.77067" lon="2.26992">
        <ele>93.59</ele>
        <time>2021-09-29T14:48:52Z</time>
      </trkpt>
      <trkpt lat="48.77064" lon="2.26996">
        <ele>92.73</ele>
        <time>2021-09-29T14:49:09Z</time>
      </trkpt>
      <trkpt lat="48.77067" lon="2.27008">
        <ele>93.06</ele>
        <time>2021-09-29T14:49:39Z</time>
      </trkpt>
      <trkpt lat="48.77067" lon="2.27009">
        <ele>92.69</ele>
        <time>2021-09-29T14:49:48Z</time>
      </trkpt>
      <trkpt lat="48.77068" lon="2.27008">
        <ele>92.91</ele>
        <time>2021-09-29T14:50:18Z</time>
      </trkpt>
      <trkpt lat="48.77061" lon="2.26995">
        <ele>93.27</ele>
        <time>2021-09-29T14:50:33Z</time>
      </trkpt>
      <trkpt lat="48.77058" lon="2.26994">
        <ele>92.7</ele>
        <time>2021-09-29T14:50:49Z</time>
      </trkpt>
      <trkpt lat="48.77056" lon="2.26995">
        <ele>92.81</ele>
        <time>2021-09-29T14:50:51Z</time>
      </trkpt>
      <trkpt lat="48.77049" lon="2.26995">
        <ele>91.98</ele>
        <time>2021-09-29T14:51:01Z</time>
      </trkpt>
      <trkpt lat="48.7704" lon="2.26999">
        <ele>93.55</ele>
        <time>2021-09-29T14:51:14Z</time>
      </trkpt>
      <trkpt lat="48.77032" lon="2.27008">
        <ele>93.65</ele>
        <time>2021-09-29T14:51:25Z</time>
      </trkpt>
      <trkpt lat="48.7703" lon="2.2701">
        <ele>93.13</ele>
        <time>2021-09-29T14:51:27Z</time>
      </trkpt>
      <trkpt lat="48.77025" lon="2.27031">
        <ele>93.51</ele>
        <time>2021-09-29T14:51:43Z</time>
      </trkpt>
      <trkpt lat="48.77024" lon="2.27039">
        <ele>93.55</ele>
        <time>2021-09-29T14:51:53Z</time>
      </trkpt>
      <trkpt lat="48.77028" lon="2.27046">
        <ele>93.19</ele>
        <time>2021-09-29T14:52:03Z</time>
      </trkpt>
      <trkpt lat="48.77034" lon="2.27057">
        <ele>92.53</ele>
        <time>2021-09-29T14:52:13Z</time>
      </trkpt>
      <trkpt lat="48.77045" lon="2.2706">
        <ele>92.56</ele>
        <time>2021-09-29T14:52:29Z</time>
      </trkpt>
      <trkpt lat="48.77057" lon="2.27056">
        <ele>92.27</ele>
        <time>2021-09-29T14:52:43Z</time>
      </trkpt>
      <trkpt lat="48.77059" lon="2.27056">
        <ele>92.35</ele>
        <time>2021-09-29T14:52:55Z</time>
      </trkpt>
      <trkpt lat="48.77062" lon="2.27055">
        <ele>92.2</ele>
        <time>2021-09-29T14:53:12Z</time>
      </trkpt>
      <trkpt lat="48.77071" lon="2.27048">
        <ele>91.61</ele>
        <time>2021-09-29T14:53:31Z</time>
      </trkpt>
      <trkpt lat="48.77083" lon="2.27042">
        <ele>91.45</ele>
        <time>2021-09-29T14:53:47Z</time>
      </trkpt>
      <trkpt lat="48.77098" lon="2.27033">
        <ele>90.83</ele>
        <time>2021-09-29T14:54:07Z</time>
      </trkpt>
      <trkpt lat="48.77108" lon="2.27025">
        <ele>91.22</ele>
        <time>2021-09-29T14:54:21Z</time>
      </trkpt>
      <trkpt lat="48.77115" lon="2.27019">
        <ele>90.52</ele>
        <time>2021-09-29T14:54:35Z</time>
      </trkpt>
      <trkpt lat="48.77121" lon="2.27007">
        <ele>89.12</ele>
        <time>2021-09-29T14:54:51Z</time>
      </trkpt>
      <trkpt lat="48.7713" lon="2.27009">
        <ele>88.71</ele>
        <time>2021-09-29T14:55:07Z</time>
      </trkpt>
      <trkpt lat="48.77139" lon="2.27013">
        <ele>88.2</ele>
        <time>2021-09-29T14:55:24Z</time>
      </trkpt>
      <trkpt lat="48.77142" lon="2.27016">
        <ele>86.99</ele>
        <time>2021-09-29T14:55:33Z</time>
      </trkpt>
      <trkpt lat="48.77156" lon="2.2703">
        <ele>87.75</ele>
        <time>2021-09-29T14:55:48Z</time>
      </trkpt>
      <trkpt lat="48.77158" lon="2.27041">
        <ele>88.56</ele>
        <time>2021-09-29T14:56:04Z</time>
      </trkpt>
      <trkpt lat="48.77166" lon="2.27061">
        <ele>88.65</ele>
        <time>2021-09-29T14:56:19Z</time>
      </trkpt>
      <trkpt lat="48.7717" lon="2.2707">
        <ele>87.81</ele>
        <time>2021-09-29T14:56:35Z</time>
      </trkpt>
      <trkpt lat="48.77165" lon="2.27088">
        <ele>88.04</ele>
        <time>2021-09-29T14:56:50Z</time>
      </trkpt>
      <trkpt lat="48.77166" lon="2.27102">
        <ele>87.47</ele>
        <time>2021-09-29T14:57:03Z</time>
      </trkpt>
      <trkpt lat="48.77162" lon="2.27116">
        <ele>87.7</ele>
        <time>2021-09-29T14:57:21Z</time>
      </trkpt>
      <trkpt lat="48.7716" lon="2.27123">
        <ele>87.41</ele>
        <time>2021-09-29T14:57:35Z</time>
      </trkpt>
      <trkpt lat="48.77163" lon="2.2712">
        <ele>88.17</ele>
        <time>2021-09-29T14:57:52Z</time>
      </trkpt>
      <trkpt lat="48.77171" lon="2.27118">
        <ele>88.32</ele>
        <time>2021-09-29T14:58:10Z</time>
      </trkpt>
      <trkpt lat="48.77178" lon="2.27119">
        <ele>87.41</ele>
        <time>2021-09-29T14:58:25Z</time>
      </trkpt>
      <trkpt lat="48.77182" lon="2.27122">
        <ele>87.99</ele>
        <time>2021-09-29T14:58:47Z</time>
      </trkpt>
      <trkpt lat="48.77179" lon="2.27133">
        <ele>87.33</ele>
        <time>2021-09-29T14:59:06Z</time>
      </trkpt>
      <trkpt lat="48.77175" lon="2.27144">
        <ele>86.93</ele>
        <time>2021-09-29T14:59:30Z</time>
      </trkpt>
      <trkpt lat="48.77163" lon="2.27148">
        <ele>86.72</ele>
        <time>2021-09-29T14:59:46Z</time>
      </trkpt>
      <trkpt lat="48.77151" lon="2.27149">
        <ele>86.93</ele>
        <time>2021-09-29T15:00:05Z</time>
      </trkpt>
      <trkpt lat="48.77138" lon="2.27149">
        <ele>87.87</ele>
        <time>2021-09-29T15:00:23Z</time>
      </trkpt>
      <trkpt lat="48.77132" lon="2.27141">
        <ele>86.73</ele>
        <time>2021-09-29T15:00:45Z</time>
      </trkpt>
      <trkpt lat="48.77121" lon="2.27133">
        <ele>87.53</ele>
        <time>2021-09-29T15:01:05Z</time>
      </trkpt>
      <trkpt lat="48.77122" lon="2.27147">
        <ele>87.12</ele>
        <time>2021-09-29T15:01:20Z</time>
      </trkpt>
      <trkpt lat="48.77131" lon="2.27175">
        <ele>86</ele>
        <time>2021-09-29T15:01:43Z</time>
      </trkpt>
      <trkpt lat="48.77137" lon="2.27186">
        <ele>85.49</ele>
        <time>2021-09-29T15:01:56Z</time>
      </trkpt>
      <trkpt lat="48.77149" lon="2.27194">
        <ele>85.77</ele>
        <time>2021-09-29T15:02:13Z</time>
      </trkpt>
      <trkpt lat="48.77161" lon="2.272">
        <ele>84.19</ele>
        <time>2021-09-29T15:02:31Z</time>
      </trkpt>
      <trkpt lat="48.77174" lon="2.27198">
        <ele>83.95</ele>
        <time>2021-09-29T15:02:48Z</time>
      </trkpt>
      <trkpt lat="48.77187" lon="2.27194">
        <ele>83.34</ele>
        <time>2021-09-29T15:03:03Z</time>
      </trkpt>
      <trkpt lat="48.772" lon="2.27189">
        <ele>83.49</ele>
        <time>2021-09-29T15:03:19Z</time>
      </trkpt>
      <trkpt lat="48.7721" lon="2.27185">
        <ele>82.71</ele>
        <time>2021-09-29T15:03:34Z</time>
      </trkpt>
      <trkpt lat="48.77226" lon="2.27179">
        <ele>82.42</ele>
        <time>2021-09-29T15:03:51Z</time>
      </trkpt>
      <trkpt lat="48.77239" lon="2.2718">
        <ele>81.34</ele>
        <time>2021-09-29T15:04:06Z</time>
      </trkpt>
      <trkpt lat="48.77253" lon="2.27163">
        <ele>81.22</ele>
        <time>2021-09-29T15:06:22Z</time>
      </trkpt>
      <trkpt lat="48.77265" lon="2.27151">
        <ele>81.17</ele>
        <time>2021-09-29T15:06:39Z</time>
      </trkpt>
      <trkpt lat="48.77272" lon="2.27144">
        <ele>80.98</ele>
        <time>2021-09-29T15:06:46Z</time>
      </trkpt>
      <trkpt lat="48.77283" lon="2.27132">
        <ele>81.04</ele>
        <time>2021-09-29T15:06:57Z</time>
      </trkpt>
      <trkpt lat="48.77286" lon="2.27128">
        <ele>82.31</ele>
        <time>2021-09-29T15:07:00Z</time>
      </trkpt>
      <trkpt lat="48.77294" lon="2.27113">
        <ele>83.1</ele>
        <time>2021-09-29T15:07:14Z</time>
      </trkpt>
      <trkpt lat="48.77305" lon="2.27092">
        <ele>82.79</ele>
        <time>2021-09-29T15:07:31Z</time>
      </trkpt>
      <trkpt lat="48.77312" lon="2.27075">
        <ele>83.11</ele>
        <time>2021-09-29T15:07:44Z</time>
      </trkpt>
      <trkpt lat="48.77313" lon="2.27066">
        <ele>83.62</ele>
        <time>2021-09-29T15:07:51Z</time>
      </trkpt>
      <trkpt lat="48.77318" lon="2.27051">
        <ele>83.2</ele>
        <time>2021-09-29T15:08:01Z</time>
      </trkpt>
      <trkpt lat="48.77323" lon="2.27032">
        <ele>84.06</ele>
        <time>2021-09-29T15:08:14Z</time>
      </trkpt>
      <trkpt lat="48.77325" lon="2.27012">
        <ele>84.26</ele>
        <time>2021-09-29T15:08:25Z</time>
      </trkpt>
      <trkpt lat="48.77325" lon="2.26992">
        <ele>84.87</ele>
        <time>2021-09-29T15:08:38Z</time>
      </trkpt>
      <trkpt lat="48.77324" lon="2.26985">
        <ele>85.3</ele>
        <time>2021-09-29T15:08:43Z</time>
      </trkpt>
      <trkpt lat="48.7732" lon="2.26965">
        <ele>86.12</ele>
        <time>2021-09-29T15:08:56Z</time>
      </trkpt>
      <trkpt lat="48.77319" lon="2.26962">
        <ele>85.99</ele>
        <time>2021-09-29T15:08:58Z</time>
      </trkpt>
      <trkpt lat="48.77316" lon="2.26948">
        <ele>86.84</ele>
        <time>2021-09-29T15:09:09Z</time>
      </trkpt>
      <trkpt lat="48.77318" lon="2.26945">
        <ele>87</ele>
        <time>2021-09-29T15:09:13Z</time>
      </trkpt>
      <trkpt lat="48.7732" lon="2.2694">
        <ele>87.37</ele>
        <time>2021-09-29T15:09:17Z</time>
      </trkpt>
      <trkpt lat="48.77325" lon="2.26927">
        <ele>88.28</ele>
        <time>2021-09-29T15:09:30Z</time>
      </trkpt>
      <trkpt lat="48.77329" lon="2.26917">
        <ele>89.15</ele>
        <time>2021-09-29T15:09:41Z</time>
      </trkpt>
      <trkpt lat="48.77334" lon="2.26909">
        <ele>89.93</ele>
        <time>2021-09-29T15:09:52Z</time>
      </trkpt>
      <trkpt lat="48.77337" lon="2.26905">
        <ele>90.27</ele>
        <time>2021-09-29T15:09:56Z</time>
      </trkpt>
      <trkpt lat="48.77343" lon="2.26899">
        <ele>91.63</ele>
        <time>2021-09-29T15:10:07Z</time>
      </trkpt>
      <trkpt lat="48.77348" lon="2.26897">
        <ele>92.13</ele>
        <time>2021-09-29T15:10:19Z</time>
      </trkpt>
      <trkpt lat="48.77347" lon="2.26895">
        <ele>92.06</ele>
        <time>2021-09-29T15:10:22Z</time>
      </trkpt>
      <trkpt lat="48.77342" lon="2.26884">
        <ele>91.9</ele>
        <time>2021-09-29T15:10:34Z</time>
      </trkpt>
      <trkpt lat="48.77338" lon="2.26879">
        <ele>91.97</ele>
        <time>2021-09-29T15:10:40Z</time>
      </trkpt>
      <trkpt lat="48.77331" lon="2.26868">
        <ele>93.44</ele>
        <time>2021-09-29T15:10:51Z</time>
      </trkpt>
      <trkpt lat="48.77326" lon="2.26859">
        <ele>93.19</ele>
        <time>2021-09-29T15:11:04Z</time>
      </trkpt>
      <trkpt lat="48.77316" lon="2.26845">
        <ele>93.15</ele>
        <time>2021-09-29T15:11:21Z</time>
      </trkpt>
      <trkpt lat="48.7731" lon="2.26837">
        <ele>93.41</ele>
        <time>2021-09-29T15:11:36Z</time>
      </trkpt>
      <trkpt lat="48.77303" lon="2.26826">
        <ele>93.48</ele>
        <time>2021-09-29T15:11:50Z</time>
      </trkpt>
      <trkpt lat="48.77297" lon="2.2681">
        <ele>94.09</ele>
        <time>2021-09-29T15:12:05Z</time>
      </trkpt>
      <trkpt lat="48.77302" lon="2.26799">
        <ele>94.29</ele>
        <time>2021-09-29T15:12:19Z</time>
      </trkpt>
      <trkpt lat="48.77314" lon="2.26784">
        <ele>96.07</ele>
        <time>2021-09-29T15:12:39Z</time>
      </trkpt>
      <trkpt lat="48.77323" lon="2.26773">
        <ele>97.6</ele>
        <time>2021-09-29T15:12:53Z</time>
      </trkpt>
      <trkpt lat="48.77331" lon="2.26763">
        <ele>98.44</ele>
        <time>2021-09-29T15:13:09Z</time>
      </trkpt>
      <trkpt lat="48.77345" lon="2.26757">
        <ele>98.71</ele>
        <time>2021-09-29T15:13:26Z</time>
      </trkpt>
      <trkpt lat="48.77356" lon="2.26764">
        <ele>99.38</ele>
        <time>2021-09-29T15:13:41Z</time>
      </trkpt>
      <trkpt lat="48.77366" lon="2.26775">
        <ele>99.37</ele>
        <time>2021-09-29T15:13:58Z</time>
      </trkpt>
      <trkpt lat="48.77377" lon="2.26782">
        <ele>98.75</ele>
        <time>2021-09-29T15:14:12Z</time>
      </trkpt>
      <trkpt lat="48.77381" lon="2.26784">
        <ele>99.13</ele>
        <time>2021-09-29T15:14:17Z</time>
      </trkpt>
      <trkpt lat="48.77395" lon="2.26793">
        <ele>98.15</ele>
        <time>2021-09-29T15:14:32Z</time>
      </trkpt>
      <trkpt lat="48.77404" lon="2.26797">
        <ele>97.22</ele>
        <time>2021-09-29T15:14:45Z</time>
      </trkpt>
      <trkpt lat="48.77421" lon="2.26812">
        <ele>96.15</ele>
        <time>2021-09-29T15:15:06Z</time>
      </trkpt>
      <trkpt lat="48.77433" lon="2.26825">
        <ele>96.97</ele>
        <time>2021-09-29T15:15:23Z</time>
      </trkpt>
      <trkpt lat="48.77448" lon="2.26845">
        <ele>95.49</ele>
        <time>2021-09-29T15:15:41Z</time>
      </trkpt>
      <trkpt lat="48.77458" lon="2.26859">
        <ele>95.24</ele>
        <time>2021-09-29T15:15:55Z</time>
      </trkpt>
      <trkpt lat="48.77468" lon="2.26871">
        <ele>94.49</ele>
        <time>2021-09-29T15:16:08Z</time>
      </trkpt>
      <trkpt lat="48.77484" lon="2.26886">
        <ele>93.99</ele>
        <time>2021-09-29T15:16:23Z</time>
      </trkpt>
      <trkpt lat="48.77492" lon="2.26895">
        <ele>93.71</ele>
        <time>2021-09-29T15:16:39Z</time>
      </trkpt>
      <trkpt lat="48.77497" lon="2.26915">
        <ele>93.07</ele>
        <time>2021-09-29T15:16:53Z</time>
      </trkpt>
      <trkpt lat="48.77506" lon="2.2693">
        <ele>93.84</ele>
        <time>2021-09-29T15:17:08Z</time>
      </trkpt>
      <trkpt lat="48.77508" lon="2.26944">
        <ele>94.12</ele>
        <time>2021-09-29T15:17:23Z</time>
      </trkpt>
      <trkpt lat="48.77502" lon="2.2696">
        <ele>93.81</ele>
        <time>2021-09-29T15:17:40Z</time>
      </trkpt>
      <trkpt lat="48.77499" lon="2.26973">
        <ele>93.82</ele>
        <time>2021-09-29T15:17:53Z</time>
      </trkpt>
      <trkpt lat="48.77502" lon="2.26997">
        <ele>94.01</ele>
        <time>2021-09-29T15:18:09Z</time>
      </trkpt>
      <trkpt lat="48.77492" lon="2.27026">
        <ele>93.74</ele>
        <time>2021-09-29T15:18:29Z</time>
      </trkpt>
      <trkpt lat="48.77484" lon="2.27052">
        <ele>93.99</ele>
        <time>2021-09-29T15:18:46Z</time>
      </trkpt>
      <trkpt lat="48.77482" lon="2.27075">
        <ele>94.6</ele>
        <time>2021-09-29T15:19:03Z</time>
      </trkpt>
      <trkpt lat="48.77483" lon="2.27101">
        <ele>96.16</ele>
        <time>2021-09-29T15:19:19Z</time>
      </trkpt>
      <trkpt lat="48.77484" lon="2.27135">
        <ele>95.93</ele>
        <time>2021-09-29T15:19:35Z</time>
      </trkpt>
      <trkpt lat="48.7749" lon="2.2715">
        <ele>95.97</ele>
        <time>2021-09-29T15:19:51Z</time>
      </trkpt>
      <trkpt lat="48.77497" lon="2.27157">
        <ele>95.92</ele>
        <time>2021-09-29T15:20:02Z</time>
      </trkpt>
      <trkpt lat="48.77509" lon="2.27178">
        <ele>96.79</ele>
        <time>2021-09-29T15:20:19Z</time>
      </trkpt>
      <trkpt lat="48.7751" lon="2.27177">
        <ele>96.72</ele>
        <time>2021-09-29T15:20:21Z</time>
      </trkpt>
      <trkpt lat="48.77521" lon="2.27193">
        <ele>96.62</ele>
        <time>2021-09-29T15:20:34Z</time>
      </trkpt>
      <trkpt lat="48.77525" lon="2.27202">
        <ele>95.7</ele>
        <time>2021-09-29T15:20:45Z</time>
      </trkpt>
      <trkpt lat="48.77535" lon="2.27219">
        <ele>95.8</ele>
        <time>2021-09-29T15:21:01Z</time>
      </trkpt>
      <trkpt lat="48.77547" lon="2.27236">
        <ele>94.95</ele>
        <time>2021-09-29T15:21:18Z</time>
      </trkpt>
      <trkpt lat="48.77557" lon="2.27249">
        <ele>95.39</ele>
        <time>2021-09-29T15:21:30Z</time>
      </trkpt>
      <trkpt lat="48.77571" lon="2.27262">
        <ele>94.45</ele>
        <time>2021-09-29T15:21:45Z</time>
      </trkpt>
      <trkpt lat="48.77582" lon="2.27281">
        <ele>94.18</ele>
        <time>2021-09-29T15:22:00Z</time>
      </trkpt>
      <trkpt lat="48.77591" lon="2.27303">
        <ele>93.85</ele>
        <time>2021-09-29T15:22:16Z</time>
      </trkpt>
      <trkpt lat="48.77599" lon="2.27322">
        <ele>93.83</ele>
        <time>2021-09-29T15:22:30Z</time>
      </trkpt>
      <trkpt lat="48.77602" lon="2.2733">
        <ele>94.03</ele>
        <time>2021-09-29T15:22:35Z</time>
      </trkpt>
      <trkpt lat="48.77609" lon="2.2734">
        <ele>93.85</ele>
        <time>2021-09-29T15:22:44Z</time>
      </trkpt>
      <trkpt lat="48.77617" lon="2.27352">
        <ele>93.02</ele>
        <time>2021-09-29T15:22:55Z</time>
      </trkpt>
      <trkpt lat="48.7763" lon="2.27374">
        <ele>93.22</ele>
        <time>2021-09-29T15:23:12Z</time>
      </trkpt>
      <trkpt lat="48.77639" lon="2.27393">
        <ele>92.46</ele>
        <time>2021-09-29T15:23:29Z</time>
      </trkpt>
      <trkpt lat="48.77647" lon="2.27412">
        <ele>92.44</ele>
        <time>2021-09-29T15:23:44Z</time>
      </trkpt>
      <trkpt lat="48.77654" lon="2.27438">
        <ele>91.91</ele>
        <time>2021-09-29T15:24:00Z</time>
      </trkpt>
      <trkpt lat="48.77657" lon="2.27456">
        <ele>91.29</ele>
        <time>2021-09-29T15:24:11Z</time>
      </trkpt>
      <trkpt lat="48.77667" lon="2.2748">
        <ele>91.06</ele>
        <time>2021-09-29T15:24:25Z</time>
      </trkpt>
      <trkpt lat="48.77672" lon="2.27497">
        <ele>90.55</ele>
        <time>2021-09-29T15:24:36Z</time>
      </trkpt>
      <trkpt lat="48.77679" lon="2.27513">
        <ele>89.84</ele>
        <time>2021-09-29T15:24:48Z</time>
      </trkpt>
      <trkpt lat="48.77687" lon="2.2753">
        <ele>89.26</ele>
        <time>2021-09-29T15:25:05Z</time>
      </trkpt>
      <trkpt lat="48.77698" lon="2.27548">
        <ele>89.2</ele>
        <time>2021-09-29T15:25:22Z</time>
      </trkpt>
      <trkpt lat="48.77706" lon="2.27567">
        <ele>88.25</ele>
        <time>2021-09-29T15:25:38Z</time>
      </trkpt>
      <trkpt lat="48.77715" lon="2.27587">
        <ele>88.09</ele>
        <time>2021-09-29T15:25:55Z</time>
      </trkpt>
      <trkpt lat="48.77732" lon="2.27599">
        <ele>87.4</ele>
        <time>2021-09-29T15:26:10Z</time>
      </trkpt>
      <trkpt lat="48.77745" lon="2.27613">
        <ele>87.2</ele>
        <time>2021-09-29T15:26:24Z</time>
      </trkpt>
      <trkpt lat="48.77747" lon="2.27614">
        <ele>87.96</ele>
        <time>2021-09-29T15:26:27Z</time>
      </trkpt>
      <trkpt lat="48.77756" lon="2.27636">
        <ele>87.43</ele>
        <time>2021-09-29T15:26:42Z</time>
      </trkpt>
      <trkpt lat="48.77772" lon="2.27651">
        <ele>87.02</ele>
        <time>2021-09-29T15:26:57Z</time>
      </trkpt>
      <trkpt lat="48.77778" lon="2.27656">
        <ele>86.6</ele>
        <time>2021-09-29T15:27:02Z</time>
      </trkpt>
      <trkpt lat="48.77791" lon="2.27669">
        <ele>86.23</ele>
        <time>2021-09-29T15:27:16Z</time>
      </trkpt>
      <trkpt lat="48.77806" lon="2.27682">
        <ele>86.32</ele>
        <time>2021-09-29T15:27:29Z</time>
      </trkpt>
      <trkpt lat="48.77811" lon="2.2769">
        <ele>85.55</ele>
        <time>2021-09-29T15:27:39Z</time>
      </trkpt>
      <trkpt lat="48.77818" lon="2.27711">
        <ele>85.27</ele>
        <time>2021-09-29T15:27:54Z</time>
      </trkpt>
      <trkpt lat="48.77822" lon="2.27731">
        <ele>84.85</ele>
        <time>2021-09-29T15:28:08Z</time>
      </trkpt>
      <trkpt lat="48.77828" lon="2.27745">
        <ele>85.66</ele>
        <time>2021-09-29T15:28:19Z</time>
      </trkpt>
      <trkpt lat="48.77831" lon="2.27762">
        <ele>85.99</ele>
        <time>2021-09-29T15:28:32Z</time>
      </trkpt>
      <trkpt lat="48.7784" lon="2.27783">
        <ele>86.68</ele>
        <time>2021-09-29T15:28:47Z</time>
      </trkpt>
      <trkpt lat="48.77844" lon="2.27801">
        <ele>86.45</ele>
        <time>2021-09-29T15:29:02Z</time>
      </trkpt>
      <trkpt lat="48.77847" lon="2.27818">
        <ele>86.12</ele>
        <time>2021-09-29T15:29:14Z</time>
      </trkpt>
      <trkpt lat="48.77847" lon="2.27838">
        <ele>86.7</ele>
        <time>2021-09-29T15:29:29Z</time>
      </trkpt>
      <trkpt lat="48.77851" lon="2.27861">
        <ele>86.85</ele>
        <time>2021-09-29T15:29:46Z</time>
      </trkpt>
      <trkpt lat="48.77855" lon="2.27875">
        <ele>86.68</ele>
        <time>2021-09-29T15:30:01Z</time>
      </trkpt>
      <trkpt lat="48.77858" lon="2.27886">
        <ele>85.83</ele>
        <time>2021-09-29T15:30:13Z</time>
      </trkpt>
      <trkpt lat="48.77852" lon="2.27914">
        <ele>85.16</ele>
        <time>2021-09-29T15:30:30Z</time>
      </trkpt>
      <trkpt lat="48.77855" lon="2.27936">
        <ele>85.86</ele>
        <time>2021-09-29T15:30:45Z</time>
      </trkpt>
      <trkpt lat="48.77864" lon="2.27941">
        <ele>85.87</ele>
        <time>2021-09-29T15:31:01Z</time>
      </trkpt>
      <trkpt lat="48.77879" lon="2.2797">
        <ele>85.1</ele>
        <time>2021-09-29T15:31:19Z</time>
      </trkpt>
      <trkpt lat="48.77888" lon="2.27976">
        <ele>84.46</ele>
        <time>2021-09-29T15:31:33Z</time>
      </trkpt>
      <trkpt lat="48.77891" lon="2.27992">
        <ele>83.72</ele>
        <time>2021-09-29T15:31:50Z</time>
      </trkpt>
      <trkpt lat="48.77894" lon="2.28002">
        <ele>84.39</ele>
        <time>2021-09-29T15:32:10Z</time>
      </trkpt>
      <trkpt lat="48.77897" lon="2.28011">
        <ele>83.94</ele>
        <time>2021-09-29T15:32:24Z</time>
      </trkpt>
      <trkpt lat="48.77903" lon="2.2803">
        <ele>83.7</ele>
        <time>2021-09-29T15:32:40Z</time>
      </trkpt>
      <trkpt lat="48.77909" lon="2.28034">
        <ele>83.44</ele>
        <time>2021-09-29T15:32:57Z</time>
      </trkpt>
      <trkpt lat="48.77921" lon="2.2805">
        <ele>79.15</ele>
        <time>2021-09-29T15:37:55Z</time>
      </trkpt>
      <trkpt lat="48.7792" lon="2.28066">
        <ele>79.2</ele>
        <time>2021-09-29T15:38:09Z</time>
      </trkpt>
      <trkpt lat="48.77932" lon="2.28078">
        <ele>79.18</ele>
        <time>2021-09-29T15:38:23Z</time>
      </trkpt>
      <trkpt lat="48.77938" lon="2.28084">
        <ele>79.22</ele>
        <time>2021-09-29T15:38:38Z</time>
      </trkpt>
      <trkpt lat="48.77943" lon="2.28085">
        <ele>79.14</ele>
        <time>2021-09-29T15:38:59Z</time>
      </trkpt>
      <trkpt lat="48.77946" lon="2.28086">
        <ele>79.23</ele>
        <time>2021-09-29T15:39:10Z</time>
      </trkpt>
      <trkpt lat="48.77951" lon="2.28092">
        <ele>79.12</ele>
        <time>2021-09-29T15:39:32Z</time>
      </trkpt>
      <trkpt lat="48.77953" lon="2.28092">
        <ele>79.5</ele>
        <time>2021-09-29T15:39:55Z</time>
      </trkpt>
      <trkpt lat="48.77956" lon="2.2809">
        <ele>80.7</ele>
        <time>2021-09-29T15:46:36Z</time>
      </trkpt>
      <trkpt lat="48.7796" lon="2.28091">
        <ele>80.05</ele>
        <time>2021-09-29T15:47:09Z</time>
      </trkpt>
      <trkpt lat="48.77965" lon="2.28098">
        <ele>80.57</ele>
        <time>2021-09-29T15:47:19Z</time>
      </trkpt>
      <trkpt lat="48.77979" lon="2.28111">
        <ele>80.25</ele>
        <time>2021-09-29T15:47:24Z</time>
      </trkpt>
      <trkpt lat="48.77991" lon="2.28121">
        <ele>79.87</ele>
        <time>2021-09-29T15:47:27Z</time>
      </trkpt>
    </trkseg>
  </trk>
</gpx>